<?xml version="1.0" encoding="UTF-8" standalone="no" ?>
<gpx xmlns="http://www.topografix.com/GPX/1/1" xmlns:xsi="http://www.w3.org/2001/XMLSchema-instance" xsi:schemaLocation="http://www.topografix.com/GPX/1/1 http://www.topografix.com/GPX/1/1/gpx.xsd" version="1.1" creator="VisuGPX - https://www.visugpx.com">
  <metadata>
    <name>Parcours VTT FFC Saillans</name>
  </metadata>
  <trk>
    <name><![CDATA[VTT N°14 noir - Tour de l'Aups - 21 km - déniv 970 m]]></name>
    <extensions>
      <line xmlns="http://www.topografix.com/GPX/gpx_style/0/2">
        <color>000000</color>
        <width>4</width>
      </line>
    </extensions>
    <trkseg>
      <trkpt lat="44.68712" lon="5.23661">
        <ele>296</ele>
        <time>2022-07-28T06:33:56Z</time>
        <extensions>
          <visugpx:TrkExtension xmlns:visugpx="https://www.visugpx.com/editgpx/">
            <visugpx:node>1</visugpx:node>
            </visugpx:TrkExtension>
        </extensions>
      </trkpt>
      <trkpt lat="44.68709" lon="5.23671">
        <ele>303</ele>
        <time>2022-07-28T06:34:23Z</time>
      </trkpt>
      <trkpt lat="44.68701" lon="5.23683">
        <ele>304</ele>
        <time>2022-07-28T06:34:27Z</time>
      </trkpt>
      <trkpt lat="44.68681" lon="5.23698">
        <ele>305</ele>
        <time>2022-07-28T06:34:34Z</time>
      </trkpt>
      <trkpt lat="44.68672" lon="5.237">
        <ele>305</ele>
        <time>2022-07-28T06:34:38Z</time>
      </trkpt>
      <trkpt lat="44.68655" lon="5.23688">
        <ele>306</ele>
        <time>2022-07-28T06:34:45Z</time>
      </trkpt>
      <trkpt lat="44.68649" lon="5.23679">
        <ele>306</ele>
        <time>2022-07-28T06:34:48Z</time>
      </trkpt>
      <trkpt lat="44.68651" lon="5.23669">
        <ele>306</ele>
        <time>2022-07-28T06:34:51Z</time>
      </trkpt>
      <trkpt lat="44.68672" lon="5.23643">
        <ele>307</ele>
        <time>2022-07-28T06:35:02Z</time>
      </trkpt>
      <trkpt lat="44.68684" lon="5.2361">
        <ele>307</ele>
        <time>2022-07-28T06:35:12Z</time>
      </trkpt>
      <trkpt lat="44.68692" lon="5.23497">
        <ele>310</ele>
        <time>2022-07-28T06:35:43Z</time>
      </trkpt>
      <trkpt lat="44.68693" lon="5.23471">
        <ele>311</ele>
        <time>2022-07-28T06:35:47Z</time>
      </trkpt>
      <trkpt lat="44.68675" lon="5.23422">
        <ele>312</ele>
        <time>2022-07-28T06:35:55Z</time>
      </trkpt>
      <trkpt lat="44.68676" lon="5.23397">
        <ele>313</ele>
        <time>2022-07-28T06:35:59Z</time>
      </trkpt>
      <trkpt lat="44.6866" lon="5.23316">
        <ele>317</ele>
        <time>2022-07-28T06:36:13Z</time>
      </trkpt>
      <trkpt lat="44.68659" lon="5.23273">
        <ele>320</ele>
        <time>2022-07-28T06:36:22Z</time>
      </trkpt>
      <trkpt lat="44.68654" lon="5.23262">
        <ele>321</ele>
        <time>2022-07-28T06:36:25Z</time>
      </trkpt>
      <trkpt lat="44.68634" lon="5.23242">
        <ele>324</ele>
        <time>2022-07-28T06:36:33Z</time>
      </trkpt>
      <trkpt lat="44.68626" lon="5.23242">
        <ele>325</ele>
        <time>2022-07-28T06:36:36Z</time>
      </trkpt>
      <trkpt lat="44.68628" lon="5.23254">
        <ele>325</ele>
        <time>2022-07-28T06:36:39Z</time>
      </trkpt>
      <trkpt lat="44.68634" lon="5.23265">
        <ele>327</ele>
        <time>2022-07-28T06:36:42Z</time>
      </trkpt>
      <trkpt lat="44.68638" lon="5.23278">
        <ele>328</ele>
        <time>2022-07-28T06:36:45Z</time>
      </trkpt>
      <trkpt lat="44.68638" lon="5.23304">
        <ele>329</ele>
        <time>2022-07-28T06:36:51Z</time>
      </trkpt>
      <trkpt lat="44.6863" lon="5.23356">
        <ele>333</ele>
        <time>2022-07-28T06:37:03Z</time>
      </trkpt>
      <trkpt lat="44.68602" lon="5.23427">
        <ele>337</ele>
        <time>2022-07-28T06:37:21Z</time>
      </trkpt>
      <trkpt lat="44.68582" lon="5.23454">
        <ele>340</ele>
        <time>2022-07-28T06:37:30Z</time>
      </trkpt>
      <trkpt lat="44.68532" lon="5.23483">
        <ele>345</ele>
        <time>2022-07-28T06:37:47Z</time>
      </trkpt>
      <trkpt lat="44.68491" lon="5.23517">
        <ele>349</ele>
        <time>2022-07-28T06:38:02Z</time>
      </trkpt>
      <trkpt lat="44.68463" lon="5.23528">
        <ele>351</ele>
        <time>2022-07-28T06:38:11Z</time>
      </trkpt>
      <trkpt lat="44.68453" lon="5.23528">
        <ele>352</ele>
        <time>2022-07-28T06:38:14Z</time>
      </trkpt>
      <trkpt lat="44.68453" lon="5.23517">
        <ele>353</ele>
        <time>2022-07-28T06:38:17Z</time>
      </trkpt>
      <trkpt lat="44.68478" lon="5.23495">
        <ele>357</ele>
        <time>2022-07-28T06:38:26Z</time>
      </trkpt>
      <trkpt lat="44.68485" lon="5.23485">
        <ele>357</ele>
        <time>2022-07-28T06:38:29Z</time>
      </trkpt>
      <trkpt lat="44.6849" lon="5.23473">
        <ele>358</ele>
        <time>2022-07-28T06:38:32Z</time>
      </trkpt>
      <trkpt lat="44.68492" lon="5.23461">
        <ele>359</ele>
        <time>2022-07-28T06:38:35Z</time>
      </trkpt>
      <trkpt lat="44.68484" lon="5.23461">
        <ele>360</ele>
        <time>2022-07-28T06:38:38Z</time>
      </trkpt>
      <trkpt lat="44.68479" lon="5.23472">
        <ele>361</ele>
        <time>2022-07-28T06:38:41Z</time>
      </trkpt>
      <trkpt lat="44.68472" lon="5.23478">
        <ele>362</ele>
        <time>2022-07-28T06:38:44Z</time>
      </trkpt>
      <trkpt lat="44.68454" lon="5.23482">
        <ele>364</ele>
        <time>2022-07-28T06:38:50Z</time>
      </trkpt>
      <trkpt lat="44.68417" lon="5.23477">
        <ele>367</ele>
        <time>2022-07-28T06:39:02Z</time>
      </trkpt>
      <trkpt lat="44.68376" lon="5.23462">
        <ele>372</ele>
        <time>2022-07-28T06:39:17Z</time>
      </trkpt>
      <trkpt lat="44.68331" lon="5.23455">
        <ele>375</ele>
        <time>2022-07-28T06:39:32Z</time>
      </trkpt>
      <trkpt lat="44.68322" lon="5.23451">
        <ele>375</ele>
        <time>2022-07-28T06:39:35Z</time>
      </trkpt>
      <trkpt lat="44.68281" lon="5.23415">
        <ele>377</ele>
        <time>2022-07-28T06:39:50Z</time>
      </trkpt>
      <trkpt lat="44.68239" lon="5.23405">
        <ele>376</ele>
        <time>2022-07-28T06:40:01Z</time>
      </trkpt>
      <trkpt lat="44.68133" lon="5.23421">
        <ele>375</ele>
        <time>2022-07-28T06:40:25Z</time>
      </trkpt>
      <trkpt lat="44.68028" lon="5.23389">
        <ele>373</ele>
        <time>2022-07-28T06:40:51Z</time>
      </trkpt>
      <trkpt lat="44.68017" lon="5.23391">
        <ele>373</ele>
        <time>2022-07-28T06:40:54Z</time>
      </trkpt>
      <trkpt lat="44.68001" lon="5.23404">
        <ele>373</ele>
        <time>2022-07-28T06:40:59Z</time>
      </trkpt>
      <trkpt lat="44.67908" lon="5.23525">
        <ele>373</ele>
        <time>2022-07-28T06:41:30Z</time>
      </trkpt>
      <trkpt lat="44.67876" lon="5.23559">
        <ele>373</ele>
        <time>2022-07-28T06:41:40Z</time>
      </trkpt>
      <trkpt lat="44.67864" lon="5.23562">
        <ele>373</ele>
        <time>2022-07-28T06:41:43Z</time>
      </trkpt>
      <trkpt lat="44.67835" lon="5.23555">
        <ele>373</ele>
        <time>2022-07-28T06:41:50Z</time>
      </trkpt>
      <trkpt lat="44.67827" lon="5.2355">
        <ele>373</ele>
        <time>2022-07-28T06:41:52Z</time>
      </trkpt>
      <trkpt lat="44.67782" lon="5.23486">
        <ele>375</ele>
        <time>2022-07-28T06:42:08Z</time>
      </trkpt>
      <trkpt lat="44.67778" lon="5.23475">
        <ele>375</ele>
        <time>2022-07-28T06:42:10Z</time>
      </trkpt>
      <trkpt lat="44.67776" lon="5.23463">
        <ele>375</ele>
        <time>2022-07-28T06:42:12Z</time>
      </trkpt>
      <trkpt lat="44.67784" lon="5.23291">
        <ele>376</ele>
        <time>2022-07-28T06:42:44Z</time>
      </trkpt>
      <trkpt lat="44.67793" lon="5.23271">
        <ele>376</ele>
        <time>2022-07-28T06:42:48Z</time>
      </trkpt>
      <trkpt lat="44.6785" lon="5.23182">
        <ele>377</ele>
        <time>2022-07-28T06:43:07Z</time>
      </trkpt>
      <trkpt lat="44.67854" lon="5.2317">
        <ele>377</ele>
        <time>2022-07-28T06:43:09Z</time>
      </trkpt>
      <trkpt lat="44.67855" lon="5.23159">
        <ele>376</ele>
        <time>2022-07-28T06:43:11Z</time>
      </trkpt>
      <trkpt lat="44.67854" lon="5.23147">
        <ele>376</ele>
        <time>2022-07-28T06:43:13Z</time>
      </trkpt>
      <trkpt lat="44.67851" lon="5.23136">
        <ele>376</ele>
        <time>2022-07-28T06:43:15Z</time>
      </trkpt>
      <trkpt lat="44.6782" lon="5.23089">
        <ele>376</ele>
        <time>2022-07-28T06:43:25Z</time>
      </trkpt>
      <trkpt lat="44.67818" lon="5.23078">
        <ele>376</ele>
        <time>2022-07-28T06:43:27Z</time>
      </trkpt>
      <trkpt lat="44.67823" lon="5.23069">
        <ele>376</ele>
        <time>2022-07-28T06:43:29Z</time>
      </trkpt>
      <trkpt lat="44.67831" lon="5.23065">
        <ele>376</ele>
        <time>2022-07-28T06:43:31Z</time>
      </trkpt>
      <trkpt lat="44.67905" lon="5.23069">
        <ele>378</ele>
        <time>2022-07-28T06:43:49Z</time>
      </trkpt>
      <trkpt lat="44.67913" lon="5.23067">
        <ele>378</ele>
        <time>2022-07-28T06:43:51Z</time>
      </trkpt>
      <trkpt lat="44.67919" lon="5.2306">
        <ele>378</ele>
        <time>2022-07-28T06:43:53Z</time>
      </trkpt>
      <trkpt lat="44.67922" lon="5.2305">
        <ele>379</ele>
        <time>2022-07-28T06:43:55Z</time>
      </trkpt>
      <trkpt lat="44.6792" lon="5.2296">
        <ele>383</ele>
        <time>2022-07-28T06:44:13Z</time>
      </trkpt>
      <trkpt lat="44.67901" lon="5.22828">
        <ele>389</ele>
        <time>2022-07-28T06:44:43Z</time>
      </trkpt>
      <trkpt lat="44.67894" lon="5.22803">
        <ele>390</ele>
        <time>2022-07-28T06:44:49Z</time>
      </trkpt>
      <trkpt lat="44.67866" lon="5.22746">
        <ele>397</ele>
        <time>2022-07-28T06:45:11Z</time>
      </trkpt>
      <trkpt lat="44.6786" lon="5.2274">
        <ele>398</ele>
        <time>2022-07-28T06:45:14Z</time>
      </trkpt>
      <trkpt lat="44.67841" lon="5.22708">
        <ele>402</ele>
        <time>2022-07-28T06:45:26Z</time>
      </trkpt>
      <trkpt lat="44.67834" lon="5.22701">
        <ele>404</ele>
        <time>2022-07-28T06:45:30Z</time>
      </trkpt>
      <trkpt lat="44.6783" lon="5.2271">
        <ele>406</ele>
        <time>2022-07-28T06:45:36Z</time>
      </trkpt>
      <trkpt lat="44.67833" lon="5.22719">
        <ele>407</ele>
        <time>2022-07-28T06:45:40Z</time>
      </trkpt>
      <trkpt lat="44.67834" lon="5.22732">
        <ele>408</ele>
        <time>2022-07-28T06:45:45Z</time>
      </trkpt>
      <trkpt lat="44.67838" lon="5.22741">
        <ele>409</ele>
        <time>2022-07-28T06:45:49Z</time>
      </trkpt>
      <trkpt lat="44.67839" lon="5.22794">
        <ele>413</ele>
        <time>2022-07-28T06:46:09Z</time>
      </trkpt>
      <trkpt lat="44.67835" lon="5.22862">
        <ele>418</ele>
        <time>2022-07-28T06:46:36Z</time>
      </trkpt>
      <trkpt lat="44.67833" lon="5.22872">
        <ele>419</ele>
        <time>2022-07-28T06:46:40Z</time>
      </trkpt>
      <trkpt lat="44.67827" lon="5.22882">
        <ele>420</ele>
        <time>2022-07-28T06:46:44Z</time>
      </trkpt>
      <trkpt lat="44.6781" lon="5.22894">
        <ele>421</ele>
        <time>2022-07-28T06:46:52Z</time>
      </trkpt>
      <trkpt lat="44.67784" lon="5.22894">
        <ele>423</ele>
        <time>2022-07-28T06:47:04Z</time>
      </trkpt>
      <trkpt lat="44.67759" lon="5.22884">
        <ele>426</ele>
        <time>2022-07-28T06:47:16Z</time>
      </trkpt>
      <trkpt lat="44.67738" lon="5.22866">
        <ele>430</ele>
        <time>2022-07-28T06:47:28Z</time>
      </trkpt>
      <trkpt lat="44.6769" lon="5.22802">
        <ele>438</ele>
        <time>2022-07-28T06:48:00Z</time>
      </trkpt>
      <trkpt lat="44.67676" lon="5.22793">
        <ele>441</ele>
        <time>2022-07-28T06:48:09Z</time>
      </trkpt>
      <trkpt lat="44.6765" lon="5.22793">
        <ele>444</ele>
        <time>2022-07-28T06:48:22Z</time>
      </trkpt>
      <trkpt lat="44.67635" lon="5.22786">
        <ele>446</ele>
        <time>2022-07-28T06:48:30Z</time>
      </trkpt>
      <trkpt lat="44.67598" lon="5.22742">
        <ele>455</ele>
        <time>2022-07-28T06:48:54Z</time>
      </trkpt>
      <trkpt lat="44.67588" lon="5.22725">
        <ele>459</ele>
        <time>2022-07-28T06:49:02Z</time>
      </trkpt>
      <trkpt lat="44.67576" lon="5.22696">
        <ele>463</ele>
        <time>2022-07-28T06:49:14Z</time>
      </trkpt>
      <trkpt lat="44.67575" lon="5.22686">
        <ele>465</ele>
        <time>2022-07-28T06:49:18Z</time>
      </trkpt>
      <trkpt lat="44.67567" lon="5.22667">
        <ele>468</ele>
        <time>2022-07-28T06:49:26Z</time>
      </trkpt>
      <trkpt lat="44.67568" lon="5.22655">
        <ele>469</ele>
        <time>2022-07-28T06:49:30Z</time>
      </trkpt>
      <trkpt lat="44.67582" lon="5.22629">
        <ele>473</ele>
        <time>2022-07-28T06:49:42Z</time>
      </trkpt>
      <trkpt lat="44.67583" lon="5.22617">
        <ele>474</ele>
        <time>2022-07-28T06:49:46Z</time>
      </trkpt>
      <trkpt lat="44.67568" lon="5.22588">
        <ele>479</ele>
        <time>2022-07-28T06:49:58Z</time>
      </trkpt>
      <trkpt lat="44.67559" lon="5.22569">
        <ele>483</ele>
        <time>2022-07-28T06:50:06Z</time>
      </trkpt>
      <trkpt lat="44.67553" lon="5.22559">
        <ele>485</ele>
        <time>2022-07-28T06:50:10Z</time>
      </trkpt>
      <trkpt lat="44.6755" lon="5.22548">
        <ele>486</ele>
        <time>2022-07-28T06:50:14Z</time>
      </trkpt>
      <trkpt lat="44.67545" lon="5.22515">
        <ele>491</ele>
        <time>2022-07-28T06:50:26Z</time>
      </trkpt>
      <trkpt lat="44.67536" lon="5.22484">
        <ele>495</ele>
        <time>2022-07-28T06:50:38Z</time>
      </trkpt>
      <trkpt lat="44.6753" lon="5.22478">
        <ele>497</ele>
        <time>2022-07-28T06:50:42Z</time>
      </trkpt>
      <trkpt lat="44.67514" lon="5.22473">
        <ele>499</ele>
        <time>2022-07-28T06:50:50Z</time>
      </trkpt>
      <trkpt lat="44.67507" lon="5.22468">
        <ele>502</ele>
        <time>2022-07-28T06:50:54Z</time>
      </trkpt>
      <trkpt lat="44.67503" lon="5.22458">
        <ele>503</ele>
        <time>2022-07-28T06:50:58Z</time>
      </trkpt>
      <trkpt lat="44.67498" lon="5.22425">
        <ele>508</ele>
        <time>2022-07-28T06:51:10Z</time>
      </trkpt>
      <trkpt lat="44.67499" lon="5.22415">
        <ele>509</ele>
        <time>2022-07-28T06:51:14Z</time>
      </trkpt>
      <trkpt lat="44.67497" lon="5.22403">
        <ele>511</ele>
        <time>2022-07-28T06:51:19Z</time>
      </trkpt>
      <trkpt lat="44.6749" lon="5.22405">
        <ele>513</ele>
        <time>2022-07-28T06:51:24Z</time>
      </trkpt>
      <trkpt lat="44.67484" lon="5.22413">
        <ele>515</ele>
        <time>2022-07-28T06:51:29Z</time>
      </trkpt>
      <trkpt lat="44.67472" lon="5.22426">
        <ele>518</ele>
        <time>2022-07-28T06:51:38Z</time>
      </trkpt>
      <trkpt lat="44.67462" lon="5.22445">
        <ele>519</ele>
        <time>2022-07-28T06:51:46Z</time>
      </trkpt>
      <trkpt lat="44.67459" lon="5.22456">
        <ele>520</ele>
        <time>2022-07-28T06:51:50Z</time>
      </trkpt>
      <trkpt lat="44.67452" lon="5.22466">
        <ele>521</ele>
        <time>2022-07-28T06:51:54Z</time>
      </trkpt>
      <trkpt lat="44.67432" lon="5.22487">
        <ele>524</ele>
        <time>2022-07-28T06:52:06Z</time>
      </trkpt>
      <trkpt lat="44.67425" lon="5.2249">
        <ele>525</ele>
        <time>2022-07-28T06:52:10Z</time>
      </trkpt>
      <trkpt lat="44.67424" lon="5.2248">
        <ele>527</ele>
        <time>2022-07-28T06:52:14Z</time>
      </trkpt>
      <trkpt lat="44.67429" lon="5.22458">
        <ele>530</ele>
        <time>2022-07-28T06:52:23Z</time>
      </trkpt>
      <trkpt lat="44.67432" lon="5.22425">
        <ele>532</ele>
        <time>2022-07-28T06:52:35Z</time>
      </trkpt>
      <trkpt lat="44.67446" lon="5.22381">
        <ele>535</ele>
        <time>2022-07-28T06:52:51Z</time>
      </trkpt>
      <trkpt lat="44.67457" lon="5.22363">
        <ele>537</ele>
        <time>2022-07-28T06:52:59Z</time>
      </trkpt>
      <trkpt lat="44.67464" lon="5.22357">
        <ele>538</ele>
        <time>2022-07-28T06:53:03Z</time>
      </trkpt>
      <trkpt lat="44.67469" lon="5.22346">
        <ele>538</ele>
        <time>2022-07-28T06:53:07Z</time>
      </trkpt>
      <trkpt lat="44.67466" lon="5.2231">
        <ele>542</ele>
        <time>2022-07-28T06:53:19Z</time>
      </trkpt>
      <trkpt lat="44.6746" lon="5.22288">
        <ele>543</ele>
        <time>2022-07-28T06:53:26Z</time>
      </trkpt>
      <trkpt lat="44.67442" lon="5.22238">
        <ele>551</ele>
        <time>2022-07-28T06:53:46Z</time>
      </trkpt>
      <trkpt lat="44.6743" lon="5.22209">
        <ele>554</ele>
        <time>2022-07-28T06:53:58Z</time>
      </trkpt>
      <trkpt lat="44.67424" lon="5.222">
        <ele>555</ele>
        <time>2022-07-28T06:54:02Z</time>
      </trkpt>
      <trkpt lat="44.67415" lon="5.22178">
        <ele>557</ele>
        <time>2022-07-28T06:54:10Z</time>
      </trkpt>
      <trkpt lat="44.67411" lon="5.22154">
        <ele>558</ele>
        <time>2022-07-28T06:54:18Z</time>
      </trkpt>
      <trkpt lat="44.67412" lon="5.22141">
        <ele>560</ele>
        <time>2022-07-28T06:54:22Z</time>
      </trkpt>
      <trkpt lat="44.67405" lon="5.22096">
        <ele>565</ele>
        <time>2022-07-28T06:54:38Z</time>
      </trkpt>
      <trkpt lat="44.67385" lon="5.22042">
        <ele>570</ele>
        <time>2022-07-28T06:54:58Z</time>
      </trkpt>
      <trkpt lat="44.67366" lon="5.21977">
        <ele>577</ele>
        <time>2022-07-28T06:55:22Z</time>
      </trkpt>
      <trkpt lat="44.67352" lon="5.21966">
        <ele>579</ele>
        <time>2022-07-28T06:55:30Z</time>
      </trkpt>
      <trkpt lat="44.67312" lon="5.21941">
        <ele>583</ele>
        <time>2022-07-28T06:55:50Z</time>
      </trkpt>
      <trkpt lat="44.67277" lon="5.2191">
        <ele>588</ele>
        <time>2022-07-28T06:56:10Z</time>
      </trkpt>
      <trkpt lat="44.6727" lon="5.21906">
        <ele>589</ele>
        <time>2022-07-28T06:56:16Z</time>
      </trkpt>
      <trkpt lat="44.67262" lon="5.21905">
        <ele>591</ele>
        <time>2022-07-28T06:56:21Z</time>
      </trkpt>
      <trkpt lat="44.67254" lon="5.21901">
        <ele>592</ele>
        <time>2022-07-28T06:56:25Z</time>
      </trkpt>
      <trkpt lat="44.67247" lon="5.21892">
        <ele>600</ele>
        <time>2022-07-28T06:57:50Z</time>
      </trkpt>
      <trkpt lat="44.67246" lon="5.21881">
        <ele>601</ele>
        <time>2022-07-28T06:57:53Z</time>
      </trkpt>
      <trkpt lat="44.67248" lon="5.21868">
        <ele>602</ele>
        <time>2022-07-28T06:57:57Z</time>
      </trkpt>
      <trkpt lat="44.67252" lon="5.21855">
        <ele>607</ele>
        <time>2022-07-28T06:58:11Z</time>
      </trkpt>
      <trkpt lat="44.67259" lon="5.21849">
        <ele>609</ele>
        <time>2022-07-28T06:58:43Z</time>
      </trkpt>
      <trkpt lat="44.67281" lon="5.21835">
        <ele>611</ele>
        <time>2022-07-28T06:58:54Z</time>
      </trkpt>
      <trkpt lat="44.67281" lon="5.21825">
        <ele>612</ele>
        <time>2022-07-28T06:58:59Z</time>
      </trkpt>
      <trkpt lat="44.67278" lon="5.21815">
        <ele>613</ele>
        <time>2022-07-28T06:59:03Z</time>
      </trkpt>
      <trkpt lat="44.67272" lon="5.21805">
        <ele>615</ele>
        <time>2022-07-28T06:59:07Z</time>
      </trkpt>
      <trkpt lat="44.6726" lon="5.21791">
        <ele>619</ele>
        <time>2022-07-28T06:59:18Z</time>
      </trkpt>
      <trkpt lat="44.67255" lon="5.21783">
        <ele>622</ele>
        <time>2022-07-28T06:59:47Z</time>
      </trkpt>
      <trkpt lat="44.67247" lon="5.21777">
        <ele>623</ele>
        <time>2022-07-28T06:59:52Z</time>
      </trkpt>
      <trkpt lat="44.67241" lon="5.21771">
        <ele>625</ele>
        <time>2022-07-28T06:59:57Z</time>
      </trkpt>
      <trkpt lat="44.6724" lon="5.2176">
        <ele>626</ele>
        <time>2022-07-28T07:00:01Z</time>
      </trkpt>
      <trkpt lat="44.67243" lon="5.21748">
        <ele>628</ele>
        <time>2022-07-28T07:00:06Z</time>
      </trkpt>
      <trkpt lat="44.67239" lon="5.21736">
        <ele>628</ele>
        <time>2022-07-28T07:00:11Z</time>
      </trkpt>
      <trkpt lat="44.67231" lon="5.21719">
        <ele>630</ele>
        <time>2022-07-28T07:00:19Z</time>
      </trkpt>
      <trkpt lat="44.67229" lon="5.2171">
        <ele>630</ele>
        <time>2022-07-28T07:00:23Z</time>
      </trkpt>
      <trkpt lat="44.67229" lon="5.21686">
        <ele>632</ele>
        <time>2022-07-28T07:00:33Z</time>
      </trkpt>
      <trkpt lat="44.67227" lon="5.21676">
        <ele>633</ele>
        <time>2022-07-28T07:00:37Z</time>
      </trkpt>
      <trkpt lat="44.67232" lon="5.21652">
        <ele>636</ele>
        <time>2022-07-28T07:00:46Z</time>
      </trkpt>
      <trkpt lat="44.67236" lon="5.21643">
        <ele>636</ele>
        <time>2022-07-28T07:00:49Z</time>
      </trkpt>
      <trkpt lat="44.6724" lon="5.21632">
        <ele>638</ele>
        <time>2022-07-28T07:00:53Z</time>
      </trkpt>
      <trkpt lat="44.67246" lon="5.21624">
        <ele>642</ele>
        <time>2022-07-28T07:01:27Z</time>
      </trkpt>
      <trkpt lat="44.67253" lon="5.21613">
        <ele>646</ele>
        <time>2022-07-28T07:02:11Z</time>
      </trkpt>
      <trkpt lat="44.67254" lon="5.21589">
        <ele>650</ele>
        <time>2022-07-28T07:02:42Z</time>
      </trkpt>
      <trkpt lat="44.67254" lon="5.21579">
        <ele>652</ele>
        <time>2022-07-28T07:03:05Z</time>
      </trkpt>
      <trkpt lat="44.67254" lon="5.21565">
        <ele>655</ele>
        <time>2022-07-28T07:03:56Z</time>
      </trkpt>
      <trkpt lat="44.67253" lon="5.21554">
        <ele>656</ele>
        <time>2022-07-28T07:04:02Z</time>
      </trkpt>
      <trkpt lat="44.67253" lon="5.21542">
        <ele>658</ele>
        <time>2022-07-28T07:04:14Z</time>
      </trkpt>
      <trkpt lat="44.6725" lon="5.21531">
        <ele>665</ele>
        <time>2022-07-28T07:05:09Z</time>
      </trkpt>
      <trkpt lat="44.67246" lon="5.21509">
        <ele>669</ele>
        <time>2022-07-28T07:05:42Z</time>
      </trkpt>
      <trkpt lat="44.67245" lon="5.21499">
        <ele>672</ele>
        <time>2022-07-28T07:06:17Z</time>
      </trkpt>
      <trkpt lat="44.67244" lon="5.21488">
        <ele>675</ele>
        <time>2022-07-28T07:07:59Z</time>
      </trkpt>
      <trkpt lat="44.67246" lon="5.21477">
        <ele>675</ele>
        <time>2022-07-28T07:08:04Z</time>
      </trkpt>
      <trkpt lat="44.67247" lon="5.21466">
        <ele>678</ele>
        <time>2022-07-28T07:08:13Z</time>
      </trkpt>
      <trkpt lat="44.67251" lon="5.21448">
        <ele>681</ele>
        <time>2022-07-28T07:08:52Z</time>
      </trkpt>
      <trkpt lat="44.67254" lon="5.21438">
        <ele>682</ele>
        <time>2022-07-28T07:08:55Z</time>
      </trkpt>
      <trkpt lat="44.67254" lon="5.21427">
        <ele>683</ele>
        <time>2022-07-28T07:08:59Z</time>
      </trkpt>
      <trkpt lat="44.67247" lon="5.21403">
        <ele>685</ele>
        <time>2022-07-28T07:09:09Z</time>
      </trkpt>
      <trkpt lat="44.67217" lon="5.21353">
        <ele>685</ele>
        <time>2022-07-28T07:09:40Z</time>
      </trkpt>
      <trkpt lat="44.67199" lon="5.21323">
        <ele>687</ele>
        <time>2022-07-28T07:10:40Z</time>
      </trkpt>
      <trkpt lat="44.67184" lon="5.21299">
        <ele>690</ele>
        <time>2022-07-28T07:10:54Z</time>
      </trkpt>
      <trkpt lat="44.67181" lon="5.21289">
        <ele>691</ele>
        <time>2022-07-28T07:10:59Z</time>
      </trkpt>
      <trkpt lat="44.67162" lon="5.21264">
        <ele>693</ele>
        <time>2022-07-28T07:11:10Z</time>
      </trkpt>
      <trkpt lat="44.67149" lon="5.21238">
        <ele>696</ele>
        <time>2022-07-28T07:11:37Z</time>
      </trkpt>
      <trkpt lat="44.6712" lon="5.212">
        <ele>699</ele>
        <time>2022-07-28T07:11:58Z</time>
      </trkpt>
      <trkpt lat="44.67115" lon="5.2119">
        <ele>700</ele>
        <time>2022-07-28T07:12:02Z</time>
      </trkpt>
      <trkpt lat="44.67102" lon="5.21174">
        <ele>701</ele>
        <time>2022-07-28T07:12:10Z</time>
      </trkpt>
      <trkpt lat="44.67095" lon="5.21168">
        <ele>703</ele>
        <time>2022-07-28T07:12:16Z</time>
      </trkpt>
      <trkpt lat="44.67089" lon="5.21159">
        <ele>704</ele>
        <time>2022-07-28T07:12:22Z</time>
      </trkpt>
      <trkpt lat="44.67082" lon="5.21154">
        <ele>705</ele>
        <time>2022-07-28T07:12:27Z</time>
      </trkpt>
      <trkpt lat="44.67076" lon="5.21146">
        <ele>707</ele>
        <time>2022-07-28T07:12:32Z</time>
      </trkpt>
      <trkpt lat="44.67072" lon="5.21135">
        <ele>708</ele>
        <time>2022-07-28T07:12:37Z</time>
      </trkpt>
      <trkpt lat="44.67044" lon="5.2109">
        <ele>713</ele>
        <time>2022-07-28T07:13:01Z</time>
      </trkpt>
      <trkpt lat="44.67041" lon="5.2108">
        <ele>715</ele>
        <time>2022-07-28T07:13:07Z</time>
      </trkpt>
      <trkpt lat="44.67041" lon="5.21068">
        <ele>716</ele>
        <time>2022-07-28T07:13:12Z</time>
      </trkpt>
      <trkpt lat="44.6704" lon="5.21057">
        <ele>717</ele>
        <time>2022-07-28T07:13:20Z</time>
      </trkpt>
      <trkpt lat="44.67019" lon="5.21021">
        <ele>720</ele>
        <time>2022-07-28T07:13:35Z</time>
      </trkpt>
      <trkpt lat="44.67013" lon="5.21015">
        <ele>720</ele>
        <time>2022-07-28T07:13:38Z</time>
      </trkpt>
      <trkpt lat="44.66998" lon="5.21009">
        <ele>719</ele>
        <time>2022-07-28T07:13:47Z</time>
      </trkpt>
      <trkpt lat="44.66967" lon="5.21018">
        <ele>715</ele>
        <time>2022-07-28T07:13:57Z</time>
      </trkpt>
      <trkpt lat="44.66945" lon="5.21033">
        <ele>713</ele>
        <time>2022-07-28T07:14:04Z</time>
      </trkpt>
      <trkpt lat="44.66927" lon="5.21051">
        <ele>710</ele>
        <time>2022-07-28T07:14:13Z</time>
      </trkpt>
      <trkpt lat="44.66908" lon="5.21057">
        <ele>705</ele>
        <time>2022-07-28T07:14:22Z</time>
      </trkpt>
      <trkpt lat="44.66895" lon="5.21061">
        <ele>703</ele>
        <time>2022-07-28T07:14:29Z</time>
      </trkpt>
      <trkpt lat="44.66887" lon="5.21065">
        <ele>703</ele>
        <time>2022-07-28T07:14:33Z</time>
      </trkpt>
      <trkpt lat="44.66867" lon="5.21086">
        <ele>701</ele>
        <time>2022-07-28T07:14:42Z</time>
      </trkpt>
      <trkpt lat="44.66857" lon="5.21093">
        <ele>701</ele>
        <time>2022-07-28T07:14:46Z</time>
      </trkpt>
      <trkpt lat="44.66851" lon="5.21104">
        <ele>700</ele>
        <time>2022-07-28T07:14:49Z</time>
      </trkpt>
      <trkpt lat="44.66844" lon="5.21111">
        <ele>700</ele>
        <time>2022-07-28T07:14:52Z</time>
      </trkpt>
      <trkpt lat="44.66836" lon="5.21131">
        <ele>697</ele>
        <time>2022-07-28T07:15:00Z</time>
      </trkpt>
      <trkpt lat="44.66829" lon="5.21135">
        <ele>697</ele>
        <time>2022-07-28T07:15:04Z</time>
      </trkpt>
      <trkpt lat="44.66807" lon="5.21161">
        <ele>695</ele>
        <time>2022-07-28T07:15:15Z</time>
      </trkpt>
      <trkpt lat="44.66797" lon="5.21194">
        <ele>691</ele>
        <time>2022-07-28T07:15:26Z</time>
      </trkpt>
      <trkpt lat="44.66791" lon="5.21208">
        <ele>689</ele>
        <time>2022-07-28T07:15:30Z</time>
      </trkpt>
      <trkpt lat="44.66793" lon="5.21219">
        <ele>687</ele>
        <time>2022-07-28T07:15:32Z</time>
      </trkpt>
      <trkpt lat="44.66788" lon="5.21249">
        <ele>684</ele>
        <time>2022-07-28T07:15:38Z</time>
      </trkpt>
      <trkpt lat="44.66787" lon="5.21259">
        <ele>681</ele>
        <time>2022-07-28T07:15:53Z</time>
      </trkpt>
      <trkpt lat="44.66771" lon="5.21303">
        <ele>680</ele>
        <time>2022-07-28T07:16:03Z</time>
      </trkpt>
      <trkpt lat="44.6677" lon="5.21315">
        <ele>680</ele>
        <time>2022-07-28T07:16:08Z</time>
      </trkpt>
      <trkpt lat="44.66763" lon="5.21319">
        <ele>680</ele>
        <time>2022-07-28T07:16:14Z</time>
      </trkpt>
      <trkpt lat="44.66754" lon="5.2132">
        <ele>679</ele>
        <time>2022-07-28T07:16:23Z</time>
      </trkpt>
      <trkpt lat="44.66743" lon="5.21326">
        <ele>679</ele>
        <time>2022-07-28T07:16:29Z</time>
      </trkpt>
      <trkpt lat="44.66724" lon="5.21326">
        <ele>678</ele>
        <time>2022-07-28T07:16:35Z</time>
      </trkpt>
      <trkpt lat="44.66713" lon="5.21329">
        <ele>677</ele>
        <time>2022-07-28T07:16:37Z</time>
      </trkpt>
      <trkpt lat="44.66696" lon="5.21339">
        <ele>675</ele>
        <time>2022-07-28T07:16:46Z</time>
      </trkpt>
      <trkpt lat="44.66688" lon="5.21355">
        <ele>674</ele>
        <time>2022-07-28T07:16:50Z</time>
      </trkpt>
      <trkpt lat="44.6668" lon="5.21365">
        <ele>674</ele>
        <time>2022-07-28T07:16:52Z</time>
      </trkpt>
      <trkpt lat="44.66677" lon="5.21375">
        <ele>672</ele>
        <time>2022-07-28T07:16:55Z</time>
      </trkpt>
      <trkpt lat="44.66665" lon="5.21389">
        <ele>668</ele>
        <time>2022-07-28T07:17:03Z</time>
      </trkpt>
      <trkpt lat="44.66662" lon="5.21399">
        <ele>667</ele>
        <time>2022-07-28T07:17:06Z</time>
      </trkpt>
      <trkpt lat="44.6666" lon="5.21409">
        <ele>664</ele>
        <time>2022-07-28T07:17:11Z</time>
      </trkpt>
      <trkpt lat="44.66649" lon="5.21418">
        <ele>662</ele>
        <time>2022-07-28T07:17:42Z</time>
      </trkpt>
      <trkpt lat="44.66641" lon="5.21423">
        <ele>662</ele>
        <time>2022-07-28T07:17:45Z</time>
      </trkpt>
      <trkpt lat="44.6663" lon="5.21434">
        <ele>662</ele>
        <time>2022-07-28T07:17:49Z</time>
      </trkpt>
      <trkpt lat="44.66625" lon="5.21446">
        <ele>661</ele>
        <time>2022-07-28T07:17:53Z</time>
      </trkpt>
      <trkpt lat="44.66595" lon="5.21481">
        <ele>661</ele>
        <time>2022-07-28T07:18:05Z</time>
      </trkpt>
      <trkpt lat="44.6659" lon="5.21492">
        <ele>661</ele>
        <time>2022-07-28T07:18:08Z</time>
      </trkpt>
      <trkpt lat="44.66587" lon="5.21502">
        <ele>661</ele>
        <time>2022-07-28T07:18:11Z</time>
      </trkpt>
      <trkpt lat="44.66591" lon="5.21534">
        <ele>664</ele>
        <time>2022-07-28T07:18:25Z</time>
      </trkpt>
      <trkpt lat="44.66589" lon="5.21547">
        <ele>664</ele>
        <time>2022-07-28T07:18:28Z</time>
      </trkpt>
      <trkpt lat="44.6659" lon="5.21582">
        <ele>661</ele>
        <time>2022-07-28T07:18:34Z</time>
      </trkpt>
      <trkpt lat="44.66587" lon="5.21604">
        <ele>660</ele>
        <time>2022-07-28T07:18:38Z</time>
      </trkpt>
      <trkpt lat="44.6657" lon="5.21636">
        <ele>659</ele>
        <time>2022-07-28T07:18:44Z</time>
      </trkpt>
      <trkpt lat="44.66544" lon="5.21665">
        <ele>656</ele>
        <time>2022-07-28T07:18:53Z</time>
      </trkpt>
      <trkpt lat="44.66506" lon="5.21753">
        <ele>653</ele>
        <time>2022-07-28T07:19:11Z</time>
      </trkpt>
      <trkpt lat="44.66479" lon="5.21844">
        <ele>651</ele>
        <time>2022-07-28T07:19:28Z</time>
      </trkpt>
      <trkpt lat="44.66466" lon="5.21945">
        <ele>653</ele>
        <time>2022-07-28T07:19:58Z</time>
      </trkpt>
      <trkpt lat="44.66464" lon="5.21978">
        <ele>655</ele>
        <time>2022-07-28T07:20:08Z</time>
      </trkpt>
      <trkpt lat="44.66471" lon="5.2201">
        <ele>655</ele>
        <time>2022-07-28T07:20:17Z</time>
      </trkpt>
      <trkpt lat="44.66508" lon="5.22076">
        <ele>656</ele>
        <time>2022-07-28T07:20:37Z</time>
      </trkpt>
      <trkpt lat="44.66513" lon="5.22098">
        <ele>656</ele>
        <time>2022-07-28T07:20:43Z</time>
      </trkpt>
      <trkpt lat="44.66512" lon="5.22109">
        <ele>656</ele>
        <time>2022-07-28T07:20:46Z</time>
      </trkpt>
      <trkpt lat="44.665" lon="5.22146">
        <ele>659</ele>
        <time>2022-07-28T07:20:56Z</time>
      </trkpt>
      <trkpt lat="44.66499" lon="5.22157">
        <ele>660</ele>
        <time>2022-07-28T07:20:59Z</time>
      </trkpt>
      <trkpt lat="44.66503" lon="5.22166">
        <ele>660</ele>
        <time>2022-07-28T07:21:02Z</time>
      </trkpt>
      <trkpt lat="44.66509" lon="5.22172">
        <ele>661</ele>
        <time>2022-07-28T07:21:05Z</time>
      </trkpt>
      <trkpt lat="44.66526" lon="5.222">
        <ele>661</ele>
        <time>2022-07-28T07:21:15Z</time>
      </trkpt>
      <trkpt lat="44.66527" lon="5.22261">
        <ele>660</ele>
        <time>2022-07-28T07:21:27Z</time>
      </trkpt>
      <trkpt lat="44.66516" lon="5.22317">
        <ele>656</ele>
        <time>2022-07-28T07:21:37Z</time>
      </trkpt>
      <trkpt lat="44.66516" lon="5.22358">
        <ele>654</ele>
        <time>2022-07-28T07:21:43Z</time>
      </trkpt>
      <trkpt lat="44.66511" lon="5.22371">
        <ele>654</ele>
        <time>2022-07-28T07:21:45Z</time>
      </trkpt>
      <trkpt lat="44.66454" lon="5.22404">
        <ele>653</ele>
        <time>2022-07-28T07:22:00Z</time>
      </trkpt>
      <trkpt lat="44.66444" lon="5.22404">
        <ele>653</ele>
        <time>2022-07-28T07:22:02Z</time>
      </trkpt>
      <trkpt lat="44.66436" lon="5.224">
        <ele>653</ele>
        <time>2022-07-28T07:22:04Z</time>
      </trkpt>
      <trkpt lat="44.66404" lon="5.22365">
        <ele>652</ele>
        <time>2022-07-28T07:22:14Z</time>
      </trkpt>
      <trkpt lat="44.66396" lon="5.22364">
        <ele>652</ele>
        <time>2022-07-28T07:22:16Z</time>
      </trkpt>
      <trkpt lat="44.66373" lon="5.22373">
        <ele>652</ele>
        <time>2022-07-28T07:22:22Z</time>
      </trkpt>
      <trkpt lat="44.66362" lon="5.22383">
        <ele>651</ele>
        <time>2022-07-28T07:22:25Z</time>
      </trkpt>
      <trkpt lat="44.66345" lon="5.2242">
        <ele>649</ele>
        <time>2022-07-28T07:22:32Z</time>
      </trkpt>
      <trkpt lat="44.66309" lon="5.22447">
        <ele>645</ele>
        <time>2022-07-28T07:22:41Z</time>
      </trkpt>
      <trkpt lat="44.6629" lon="5.2245">
        <ele>644</ele>
        <time>2022-07-28T07:22:45Z</time>
      </trkpt>
      <trkpt lat="44.66271" lon="5.22462">
        <ele>642</ele>
        <time>2022-07-28T07:22:49Z</time>
      </trkpt>
      <trkpt lat="44.6622" lon="5.22512">
        <ele>636</ele>
        <time>2022-07-28T07:22:59Z</time>
      </trkpt>
      <trkpt lat="44.66209" lon="5.22518">
        <ele>635</ele>
        <time>2022-07-28T07:23:01Z</time>
      </trkpt>
      <trkpt lat="44.66199" lon="5.22518">
        <ele>634</ele>
        <time>2022-07-28T07:23:03Z</time>
      </trkpt>
      <trkpt lat="44.66191" lon="5.22509">
        <ele>633</ele>
        <time>2022-07-28T07:23:05Z</time>
      </trkpt>
      <trkpt lat="44.66181" lon="5.22484">
        <ele>632</ele>
        <time>2022-07-28T07:23:09Z</time>
      </trkpt>
      <trkpt lat="44.66169" lon="5.22468">
        <ele>631</ele>
        <time>2022-07-28T07:23:13Z</time>
      </trkpt>
      <trkpt lat="44.66161" lon="5.22461">
        <ele>629</ele>
        <time>2022-07-28T07:23:16Z</time>
      </trkpt>
      <trkpt lat="44.66154" lon="5.22457">
        <ele>629</ele>
        <time>2022-07-28T07:23:18Z</time>
      </trkpt>
      <trkpt lat="44.66146" lon="5.22455">
        <ele>628</ele>
        <time>2022-07-28T07:23:20Z</time>
      </trkpt>
      <trkpt lat="44.66138" lon="5.22457">
        <ele>627</ele>
        <time>2022-07-28T07:23:22Z</time>
      </trkpt>
      <trkpt lat="44.66131" lon="5.22463">
        <ele>626</ele>
        <time>2022-07-28T07:23:24Z</time>
      </trkpt>
      <trkpt lat="44.66112" lon="5.22511">
        <ele>621</ele>
        <time>2022-07-28T07:23:34Z</time>
      </trkpt>
      <trkpt lat="44.66105" lon="5.22517">
        <ele>620</ele>
        <time>2022-07-28T07:23:36Z</time>
      </trkpt>
      <trkpt lat="44.66071" lon="5.22531">
        <ele>616</ele>
        <time>2022-07-28T07:23:44Z</time>
      </trkpt>
      <trkpt lat="44.66055" lon="5.22532">
        <ele>614</ele>
        <time>2022-07-28T07:23:48Z</time>
      </trkpt>
      <trkpt lat="44.6603" lon="5.22523">
        <ele>612</ele>
        <time>2022-07-28T07:23:54Z</time>
      </trkpt>
      <trkpt lat="44.66022" lon="5.22526">
        <ele>611</ele>
        <time>2022-07-28T07:23:56Z</time>
      </trkpt>
      <trkpt lat="44.66009" lon="5.22539">
        <ele>609</ele>
        <time>2022-07-28T07:24:00Z</time>
      </trkpt>
      <trkpt lat="44.66" lon="5.22537">
        <ele>608</ele>
        <time>2022-07-28T07:24:03Z</time>
      </trkpt>
      <trkpt lat="44.66003" lon="5.22521">
        <ele>606</ele>
        <time>2022-07-28T07:24:07Z</time>
      </trkpt>
      <trkpt lat="44.66015" lon="5.22509">
        <ele>604</ele>
        <time>2022-07-28T07:24:11Z</time>
      </trkpt>
      <trkpt lat="44.66037" lon="5.22479">
        <ele>601</ele>
        <time>2022-07-28T07:24:19Z</time>
      </trkpt>
      <trkpt lat="44.66054" lon="5.22475">
        <ele>599</ele>
        <time>2022-07-28T07:24:23Z</time>
      </trkpt>
      <trkpt lat="44.66065" lon="5.22466">
        <ele>597</ele>
        <time>2022-07-28T07:24:26Z</time>
      </trkpt>
      <trkpt lat="44.6607" lon="5.22458">
        <ele>597</ele>
        <time>2022-07-28T07:24:28Z</time>
      </trkpt>
      <trkpt lat="44.66075" lon="5.22448">
        <ele>596</ele>
        <time>2022-07-28T07:24:30Z</time>
      </trkpt>
      <trkpt lat="44.66096" lon="5.22339">
        <ele>587</ele>
        <time>2022-07-28T07:24:48Z</time>
      </trkpt>
      <trkpt lat="44.66105" lon="5.22329">
        <ele>586</ele>
        <time>2022-07-28T07:24:51Z</time>
      </trkpt>
      <trkpt lat="44.6613" lon="5.22323">
        <ele>582</ele>
        <time>2022-07-28T07:24:57Z</time>
      </trkpt>
      <trkpt lat="44.66137" lon="5.22314">
        <ele>581</ele>
        <time>2022-07-28T07:25:00Z</time>
      </trkpt>
      <trkpt lat="44.66131" lon="5.22303">
        <ele>579</ele>
        <time>2022-07-28T07:25:03Z</time>
      </trkpt>
      <trkpt lat="44.66122" lon="5.22307">
        <ele>578</ele>
        <time>2022-07-28T07:25:06Z</time>
      </trkpt>
      <trkpt lat="44.66077" lon="5.22319">
        <ele>575</ele>
        <time>2022-07-28T07:25:16Z</time>
      </trkpt>
      <trkpt lat="44.66068" lon="5.22323">
        <ele>573</ele>
        <time>2022-07-28T07:25:18Z</time>
      </trkpt>
      <trkpt lat="44.66062" lon="5.22328">
        <ele>571</ele>
        <time>2022-07-28T07:25:20Z</time>
      </trkpt>
      <trkpt lat="44.66039" lon="5.22358">
        <ele>567</ele>
        <time>2022-07-28T07:25:28Z</time>
      </trkpt>
      <trkpt lat="44.66029" lon="5.22369">
        <ele>565</ele>
        <time>2022-07-28T07:25:32Z</time>
      </trkpt>
      <trkpt lat="44.66022" lon="5.22373">
        <ele>564</ele>
        <time>2022-07-28T07:25:33Z</time>
      </trkpt>
      <trkpt lat="44.66015" lon="5.22374">
        <ele>562</ele>
        <time>2022-07-28T07:25:36Z</time>
      </trkpt>
      <trkpt lat="44.66001" lon="5.2237">
        <ele>562</ele>
        <time>2022-07-28T07:25:38Z</time>
      </trkpt>
      <trkpt lat="44.65989" lon="5.2237">
        <ele>559</ele>
        <time>2022-07-28T07:25:41Z</time>
      </trkpt>
      <trkpt lat="44.65935" lon="5.2242">
        <ele>553</ele>
        <time>2022-07-28T07:25:54Z</time>
      </trkpt>
      <trkpt lat="44.65899" lon="5.2244">
        <ele>550</ele>
        <time>2022-07-28T07:26:00Z</time>
      </trkpt>
      <trkpt lat="44.65891" lon="5.22449">
        <ele>549</ele>
        <time>2022-07-28T07:26:02Z</time>
      </trkpt>
      <trkpt lat="44.65882" lon="5.22464">
        <ele>547</ele>
        <time>2022-07-28T07:26:05Z</time>
      </trkpt>
      <trkpt lat="44.65866" lon="5.22479">
        <ele>546</ele>
        <time>2022-07-28T07:26:09Z</time>
      </trkpt>
      <trkpt lat="44.65858" lon="5.22488">
        <ele>543</ele>
        <time>2022-07-28T07:26:12Z</time>
      </trkpt>
      <trkpt lat="44.65849" lon="5.22494">
        <ele>542</ele>
        <time>2022-07-28T07:26:14Z</time>
      </trkpt>
      <trkpt lat="44.65837" lon="5.22499">
        <ele>538</ele>
        <time>2022-07-28T07:26:30Z</time>
      </trkpt>
      <trkpt lat="44.65825" lon="5.22498">
        <ele>537</ele>
        <time>2022-07-28T07:26:34Z</time>
      </trkpt>
      <trkpt lat="44.65825" lon="5.22484">
        <ele>537</ele>
        <time>2022-07-28T07:26:37Z</time>
      </trkpt>
      <trkpt lat="44.6583" lon="5.22477">
        <ele>537</ele>
        <time>2022-07-28T07:26:39Z</time>
      </trkpt>
      <trkpt lat="44.65838" lon="5.2247">
        <ele>536</ele>
        <time>2022-07-28T07:26:41Z</time>
      </trkpt>
      <trkpt lat="44.65842" lon="5.22462">
        <ele>536</ele>
        <time>2022-07-28T07:26:43Z</time>
      </trkpt>
      <trkpt lat="44.65842" lon="5.22449">
        <ele>534</ele>
        <time>2022-07-28T07:26:46Z</time>
      </trkpt>
      <trkpt lat="44.65836" lon="5.22443">
        <ele>534</ele>
        <time>2022-07-28T07:26:48Z</time>
      </trkpt>
      <trkpt lat="44.65819" lon="5.22444">
        <ele>531</ele>
        <time>2022-07-28T07:26:55Z</time>
      </trkpt>
      <trkpt lat="44.65809" lon="5.2243">
        <ele>530</ele>
        <time>2022-07-28T07:26:59Z</time>
      </trkpt>
      <trkpt lat="44.65802" lon="5.22404">
        <ele>529</ele>
        <time>2022-07-28T07:27:03Z</time>
      </trkpt>
      <trkpt lat="44.65798" lon="5.22366">
        <ele>526</ele>
        <time>2022-07-28T07:27:10Z</time>
      </trkpt>
      <trkpt lat="44.65794" lon="5.22357">
        <ele>523</ele>
        <time>2022-07-28T07:27:17Z</time>
      </trkpt>
      <trkpt lat="44.65735" lon="5.22389">
        <ele>524</ele>
        <time>2022-07-28T07:27:39Z</time>
      </trkpt>
      <trkpt lat="44.65729" lon="5.22395">
        <ele>524</ele>
        <time>2022-07-28T07:27:42Z</time>
      </trkpt>
      <trkpt lat="44.65716" lon="5.22417">
        <ele>526</ele>
        <time>2022-07-28T07:27:51Z</time>
      </trkpt>
      <trkpt lat="44.65693" lon="5.22429">
        <ele>528</ele>
        <time>2022-07-28T07:28:00Z</time>
      </trkpt>
      <trkpt lat="44.65649" lon="5.22479">
        <ele>532</ele>
        <time>2022-07-28T07:28:22Z</time>
      </trkpt>
      <trkpt lat="44.65634" lon="5.22487">
        <ele>532</ele>
        <time>2022-07-28T07:28:28Z</time>
      </trkpt>
      <trkpt lat="44.65615" lon="5.22489">
        <ele>532</ele>
        <time>2022-07-28T07:28:35Z</time>
      </trkpt>
      <trkpt lat="44.65596" lon="5.22484">
        <ele>534</ele>
        <time>2022-07-28T07:28:44Z</time>
      </trkpt>
      <trkpt lat="44.65588" lon="5.22486">
        <ele>534</ele>
        <time>2022-07-28T07:28:49Z</time>
      </trkpt>
      <trkpt lat="44.65588" lon="5.22497">
        <ele>535</ele>
        <time>2022-07-28T07:28:53Z</time>
      </trkpt>
      <trkpt lat="44.6557" lon="5.22557">
        <ele>540</ele>
        <time>2022-07-28T07:29:16Z</time>
      </trkpt>
      <trkpt lat="44.65535" lon="5.22631">
        <ele>551</ele>
        <time>2022-07-28T07:29:49Z</time>
      </trkpt>
      <trkpt lat="44.65532" lon="5.22642">
        <ele>552</ele>
        <time>2022-07-28T07:29:53Z</time>
      </trkpt>
      <trkpt lat="44.65527" lon="5.22651">
        <ele>553</ele>
        <time>2022-07-28T07:29:57Z</time>
      </trkpt>
      <trkpt lat="44.6552" lon="5.22655">
        <ele>554</ele>
        <time>2022-07-28T07:30:01Z</time>
      </trkpt>
      <trkpt lat="44.65513" lon="5.22649">
        <ele>555</ele>
        <time>2022-07-28T07:30:05Z</time>
      </trkpt>
      <trkpt lat="44.6551" lon="5.2264">
        <ele>556</ele>
        <time>2022-07-28T07:30:09Z</time>
      </trkpt>
      <trkpt lat="44.65519" lon="5.22606">
        <ele>558</ele>
        <time>2022-07-28T07:30:22Z</time>
      </trkpt>
      <trkpt lat="44.65524" lon="5.22562">
        <ele>563</ele>
        <time>2022-07-28T07:30:39Z</time>
      </trkpt>
      <trkpt lat="44.65521" lon="5.2255">
        <ele>565</ele>
        <time>2022-07-28T07:30:46Z</time>
      </trkpt>
      <trkpt lat="44.65515" lon="5.22537">
        <ele>566</ele>
        <time>2022-07-28T07:30:51Z</time>
      </trkpt>
      <trkpt lat="44.65507" lon="5.22529">
        <ele>567</ele>
        <time>2022-07-28T07:30:55Z</time>
      </trkpt>
      <trkpt lat="44.65499" lon="5.22529">
        <ele>568</ele>
        <time>2022-07-28T07:30:59Z</time>
      </trkpt>
      <trkpt lat="44.65448" lon="5.22542">
        <ele>575</ele>
        <time>2022-07-28T07:31:21Z</time>
      </trkpt>
      <trkpt lat="44.65433" lon="5.22556">
        <ele>576</ele>
        <time>2022-07-28T07:31:28Z</time>
      </trkpt>
      <trkpt lat="44.65428" lon="5.22564">
        <ele>577</ele>
        <time>2022-07-28T07:31:32Z</time>
      </trkpt>
      <trkpt lat="44.65416" lon="5.22598">
        <ele>580</ele>
        <time>2022-07-28T07:31:43Z</time>
      </trkpt>
      <trkpt lat="44.65408" lon="5.22604">
        <ele>581</ele>
        <time>2022-07-28T07:31:47Z</time>
      </trkpt>
      <trkpt lat="44.654" lon="5.22598">
        <ele>582</ele>
        <time>2022-07-28T07:31:52Z</time>
      </trkpt>
      <trkpt lat="44.65392" lon="5.22511">
        <ele>588</ele>
        <time>2022-07-28T07:32:23Z</time>
      </trkpt>
      <trkpt lat="44.6539" lon="5.225">
        <ele>589</ele>
        <time>2022-07-28T07:32:27Z</time>
      </trkpt>
      <trkpt lat="44.6538" lon="5.22494">
        <ele>589</ele>
        <time>2022-07-28T07:32:33Z</time>
      </trkpt>
      <trkpt lat="44.65371" lon="5.22494">
        <ele>590</ele>
        <time>2022-07-28T07:32:37Z</time>
      </trkpt>
      <trkpt lat="44.65356" lon="5.22501">
        <ele>592</ele>
        <time>2022-07-28T07:32:45Z</time>
      </trkpt>
      <trkpt lat="44.65312" lon="5.22545">
        <ele>600</ele>
        <time>2022-07-28T07:33:18Z</time>
      </trkpt>
      <trkpt lat="44.65305" lon="5.22551">
        <ele>601</ele>
        <time>2022-07-28T07:33:22Z</time>
      </trkpt>
      <trkpt lat="44.65297" lon="5.22549">
        <ele>602</ele>
        <time>2022-07-28T07:33:26Z</time>
      </trkpt>
      <trkpt lat="44.65289" lon="5.22543">
        <ele>603</ele>
        <time>2022-07-28T07:33:31Z</time>
      </trkpt>
      <trkpt lat="44.65287" lon="5.22532">
        <ele>604</ele>
        <time>2022-07-28T07:33:35Z</time>
      </trkpt>
      <trkpt lat="44.65284" lon="5.2252">
        <ele>606</ele>
        <time>2022-07-28T07:33:40Z</time>
      </trkpt>
      <trkpt lat="44.65278" lon="5.22511">
        <ele>607</ele>
        <time>2022-07-28T07:33:44Z</time>
      </trkpt>
      <trkpt lat="44.65271" lon="5.22508">
        <ele>608</ele>
        <time>2022-07-28T07:33:48Z</time>
      </trkpt>
      <trkpt lat="44.65217" lon="5.2251">
        <ele>616</ele>
        <time>2022-07-28T07:34:21Z</time>
      </trkpt>
      <trkpt lat="44.6521" lon="5.22512">
        <ele>616</ele>
        <time>2022-07-28T07:34:25Z</time>
      </trkpt>
      <trkpt lat="44.65202" lon="5.22517">
        <ele>617</ele>
        <time>2022-07-28T07:34:30Z</time>
      </trkpt>
      <trkpt lat="44.6518" lon="5.22552">
        <ele>621</ele>
        <time>2022-07-28T07:34:46Z</time>
      </trkpt>
      <trkpt lat="44.65157" lon="5.22603">
        <ele>624</ele>
        <time>2022-07-28T07:35:06Z</time>
      </trkpt>
      <trkpt lat="44.65143" lon="5.22617">
        <ele>625</ele>
        <time>2022-07-28T07:35:14Z</time>
      </trkpt>
      <trkpt lat="44.6512" lon="5.22627">
        <ele>628</ele>
        <time>2022-07-28T07:35:26Z</time>
      </trkpt>
      <trkpt lat="44.6511" lon="5.22625">
        <ele>629</ele>
        <time>2022-07-28T07:35:30Z</time>
      </trkpt>
      <trkpt lat="44.65103" lon="5.2262">
        <ele>631</ele>
        <time>2022-07-28T07:35:34Z</time>
      </trkpt>
      <trkpt lat="44.65101" lon="5.22608">
        <ele>632</ele>
        <time>2022-07-28T07:35:38Z</time>
      </trkpt>
      <trkpt lat="44.65104" lon="5.22572">
        <ele>634</ele>
        <time>2022-07-28T07:35:50Z</time>
      </trkpt>
      <trkpt lat="44.65101" lon="5.2256">
        <ele>635</ele>
        <time>2022-07-28T07:35:54Z</time>
      </trkpt>
      <trkpt lat="44.65095" lon="5.22553">
        <ele>635</ele>
        <time>2022-07-28T07:35:58Z</time>
      </trkpt>
      <trkpt lat="44.65087" lon="5.2255">
        <ele>636</ele>
        <time>2022-07-28T07:36:02Z</time>
      </trkpt>
      <trkpt lat="44.65062" lon="5.22547">
        <ele>639</ele>
        <time>2022-07-28T07:36:14Z</time>
      </trkpt>
      <trkpt lat="44.65054" lon="5.22543">
        <ele>640</ele>
        <time>2022-07-28T07:36:18Z</time>
      </trkpt>
      <trkpt lat="44.65047" lon="5.22537">
        <ele>641</ele>
        <time>2022-07-28T07:36:22Z</time>
      </trkpt>
      <trkpt lat="44.65041" lon="5.22515">
        <ele>643</ele>
        <time>2022-07-28T07:36:31Z</time>
      </trkpt>
      <trkpt lat="44.65035" lon="5.22506">
        <ele>644</ele>
        <time>2022-07-28T07:36:35Z</time>
      </trkpt>
      <trkpt lat="44.64989" lon="5.22458">
        <ele>651</ele>
        <time>2022-07-28T07:37:03Z</time>
      </trkpt>
      <trkpt lat="44.64985" lon="5.22449">
        <ele>652</ele>
        <time>2022-07-28T07:37:07Z</time>
      </trkpt>
      <trkpt lat="44.64965" lon="5.22429">
        <ele>655</ele>
        <time>2022-07-28T07:37:19Z</time>
      </trkpt>
      <trkpt lat="44.64957" lon="5.22429">
        <ele>656</ele>
        <time>2022-07-28T07:37:23Z</time>
      </trkpt>
      <trkpt lat="44.64954" lon="5.22441">
        <ele>657</ele>
        <time>2022-07-28T07:37:28Z</time>
      </trkpt>
      <trkpt lat="44.6496" lon="5.22449">
        <ele>658</ele>
        <time>2022-07-28T07:37:32Z</time>
      </trkpt>
      <trkpt lat="44.64967" lon="5.22454">
        <ele>660</ele>
        <time>2022-07-28T07:37:36Z</time>
      </trkpt>
      <trkpt lat="44.64979" lon="5.22469">
        <ele>661</ele>
        <time>2022-07-28T07:37:45Z</time>
      </trkpt>
      <trkpt lat="44.65001" lon="5.22556">
        <ele>668</ele>
        <time>2022-07-28T07:38:15Z</time>
      </trkpt>
      <trkpt lat="44.65015" lon="5.22608">
        <ele>674</ele>
        <time>2022-07-28T07:38:35Z</time>
      </trkpt>
      <trkpt lat="44.65019" lon="5.22617">
        <ele>675</ele>
        <time>2022-07-28T07:38:39Z</time>
      </trkpt>
      <trkpt lat="44.65022" lon="5.22628">
        <ele>677</ele>
        <time>2022-07-28T07:38:43Z</time>
      </trkpt>
      <trkpt lat="44.6502" lon="5.22686">
        <ele>683</ele>
        <time>2022-07-28T07:39:04Z</time>
      </trkpt>
      <trkpt lat="44.65015" lon="5.22729">
        <ele>686</ele>
        <time>2022-07-28T07:39:20Z</time>
      </trkpt>
      <trkpt lat="44.65017" lon="5.2274">
        <ele>687</ele>
        <time>2022-07-28T07:39:24Z</time>
      </trkpt>
      <trkpt lat="44.65026" lon="5.2276">
        <ele>690</ele>
        <time>2022-07-28T07:39:32Z</time>
      </trkpt>
      <trkpt lat="44.65032" lon="5.22766">
        <ele>690</ele>
        <time>2022-07-28T07:39:36Z</time>
      </trkpt>
      <trkpt lat="44.65036" lon="5.22776">
        <ele>691</ele>
        <time>2022-07-28T07:39:40Z</time>
      </trkpt>
      <trkpt lat="44.65043" lon="5.22811">
        <ele>695</ele>
        <time>2022-07-28T07:39:52Z</time>
      </trkpt>
      <trkpt lat="44.65046" lon="5.22838">
        <ele>698</ele>
        <time>2022-07-28T07:40:01Z</time>
      </trkpt>
      <trkpt lat="44.6506" lon="5.22903">
        <ele>705</ele>
        <time>2022-07-28T07:40:23Z</time>
      </trkpt>
      <trkpt lat="44.6506" lon="5.22916">
        <ele>706</ele>
        <time>2022-07-28T07:40:27Z</time>
      </trkpt>
      <trkpt lat="44.65042" lon="5.2297">
        <ele>712</ele>
        <time>2022-07-28T07:40:48Z</time>
      </trkpt>
      <trkpt lat="44.65032" lon="5.22988">
        <ele>714</ele>
        <time>2022-07-28T07:40:57Z</time>
      </trkpt>
      <trkpt lat="44.65026" lon="5.22995">
        <ele>715</ele>
        <time>2022-07-28T07:41:01Z</time>
      </trkpt>
      <trkpt lat="44.65011" lon="5.23003">
        <ele>718</ele>
        <time>2022-07-28T07:41:09Z</time>
      </trkpt>
      <trkpt lat="44.64992" lon="5.23006">
        <ele>719</ele>
        <time>2022-07-28T07:41:17Z</time>
      </trkpt>
      <trkpt lat="44.64984" lon="5.23013">
        <ele>719</ele>
        <time>2022-07-28T07:41:21Z</time>
      </trkpt>
      <trkpt lat="44.64978" lon="5.23023">
        <ele>719</ele>
        <time>2022-07-28T07:41:25Z</time>
      </trkpt>
      <trkpt lat="44.6497" lon="5.23047">
        <ele>720</ele>
        <time>2022-07-28T07:41:33Z</time>
      </trkpt>
      <trkpt lat="44.64962" lon="5.23068">
        <ele>723</ele>
        <time>2022-07-28T07:41:41Z</time>
      </trkpt>
      <trkpt lat="44.64955" lon="5.23081">
        <ele>725</ele>
        <time>2022-07-28T07:41:46Z</time>
      </trkpt>
      <trkpt lat="44.64902" lon="5.23138">
        <ele>732</ele>
        <time>2022-07-28T07:42:19Z</time>
      </trkpt>
      <trkpt lat="44.64838" lon="5.23192">
        <ele>737</ele>
        <time>2022-07-28T07:42:43Z</time>
      </trkpt>
      <trkpt lat="44.64817" lon="5.23219">
        <ele>739</ele>
        <time>2022-07-28T07:42:52Z</time>
      </trkpt>
      <trkpt lat="44.648" lon="5.2326">
        <ele>743</ele>
        <time>2022-07-28T07:43:04Z</time>
      </trkpt>
      <trkpt lat="44.64798" lon="5.23272">
        <ele>745</ele>
        <time>2022-07-28T07:43:08Z</time>
      </trkpt>
      <trkpt lat="44.6482" lon="5.23363">
        <ele>752</ele>
        <time>2022-07-28T07:43:41Z</time>
      </trkpt>
      <trkpt lat="44.64821" lon="5.23375">
        <ele>753</ele>
        <time>2022-07-28T07:43:45Z</time>
      </trkpt>
      <trkpt lat="44.64833" lon="5.23408">
        <ele>756</ele>
        <time>2022-07-28T07:43:57Z</time>
      </trkpt>
      <trkpt lat="44.64877" lon="5.23482">
        <ele>764</ele>
        <time>2022-07-28T07:44:28Z</time>
      </trkpt>
      <trkpt lat="44.64908" lon="5.23521">
        <ele>771</ele>
        <time>2022-07-28T07:44:45Z</time>
      </trkpt>
      <trkpt lat="44.64974" lon="5.23539">
        <ele>778</ele>
        <time>2022-07-28T07:45:12Z</time>
      </trkpt>
      <trkpt lat="44.64988" lon="5.23554">
        <ele>780</ele>
        <time>2022-07-28T07:45:20Z</time>
      </trkpt>
      <trkpt lat="44.65008" lon="5.23593">
        <ele>784</ele>
        <time>2022-07-28T07:45:35Z</time>
      </trkpt>
      <trkpt lat="44.65036" lon="5.23627">
        <ele>788</ele>
        <time>2022-07-28T07:45:51Z</time>
      </trkpt>
      <trkpt lat="44.65055" lon="5.23652">
        <ele>791</ele>
        <time>2022-07-28T07:46:03Z</time>
      </trkpt>
      <trkpt lat="44.65113" lon="5.23706">
        <ele>799</ele>
        <time>2022-07-28T07:46:34Z</time>
      </trkpt>
      <trkpt lat="44.65138" lon="5.23718">
        <ele>802</ele>
        <time>2022-07-28T07:46:46Z</time>
      </trkpt>
      <trkpt lat="44.6515" lon="5.23736">
        <ele>803</ele>
        <time>2022-07-28T07:46:54Z</time>
      </trkpt>
      <trkpt lat="44.65172" lon="5.2379">
        <ele>806</ele>
        <time>2022-07-28T07:47:14Z</time>
      </trkpt>
      <trkpt lat="44.65178" lon="5.23799">
        <ele>807</ele>
        <time>2022-07-28T07:47:18Z</time>
      </trkpt>
      <trkpt lat="44.65195" lon="5.23808">
        <ele>808</ele>
        <time>2022-07-28T07:47:24Z</time>
      </trkpt>
      <trkpt lat="44.65259" lon="5.23823">
        <ele>813</ele>
        <time>2022-07-28T07:47:45Z</time>
      </trkpt>
      <trkpt lat="44.65291" lon="5.23846">
        <ele>814</ele>
        <time>2022-07-28T07:47:56Z</time>
      </trkpt>
      <trkpt lat="44.65329" lon="5.23886">
        <ele>818</ele>
        <time>2022-07-28T07:48:11Z</time>
      </trkpt>
      <trkpt lat="44.65332" lon="5.23897">
        <ele>819</ele>
        <time>2022-07-28T07:48:14Z</time>
      </trkpt>
      <trkpt lat="44.65346" lon="5.24009">
        <ele>823</ele>
        <time>2022-07-28T07:48:44Z</time>
      </trkpt>
      <trkpt lat="44.65346" lon="5.2402">
        <ele>824</ele>
        <time>2022-07-28T07:48:47Z</time>
      </trkpt>
      <trkpt lat="44.65343" lon="5.24031">
        <ele>825</ele>
        <time>2022-07-28T07:48:50Z</time>
      </trkpt>
      <trkpt lat="44.65334" lon="5.2405">
        <ele>825</ele>
        <time>2022-07-28T07:48:56Z</time>
      </trkpt>
      <trkpt lat="44.65313" lon="5.24114">
        <ele>829</ele>
        <time>2022-07-28T07:49:14Z</time>
      </trkpt>
      <trkpt lat="44.65299" lon="5.24152">
        <ele>831</ele>
        <time>2022-07-28T07:49:26Z</time>
      </trkpt>
      <trkpt lat="44.65286" lon="5.24203">
        <ele>833</ele>
        <time>2022-07-28T07:49:41Z</time>
      </trkpt>
      <trkpt lat="44.65294" lon="5.24271">
        <ele>834</ele>
        <time>2022-07-28T07:50:02Z</time>
      </trkpt>
      <trkpt lat="44.65285" lon="5.24301">
        <ele>837</ele>
        <time>2022-07-28T07:50:16Z</time>
      </trkpt>
      <trkpt lat="44.65279" lon="5.24334">
        <ele>843</ele>
        <time>2022-07-28T07:50:30Z</time>
      </trkpt>
      <trkpt lat="44.65276" lon="5.24345">
        <ele>845</ele>
        <time>2022-07-28T07:50:36Z</time>
      </trkpt>
      <trkpt lat="44.65273" lon="5.24363">
        <ele>848</ele>
        <time>2022-07-28T07:51:27Z</time>
      </trkpt>
      <trkpt lat="44.65272" lon="5.24378">
        <ele>848</ele>
        <time>2022-07-28T07:51:41Z</time>
      </trkpt>
      <trkpt lat="44.65269" lon="5.24389">
        <ele>848</ele>
        <time>2022-07-28T07:51:45Z</time>
      </trkpt>
      <trkpt lat="44.65255" lon="5.24401">
        <ele>846</ele>
        <time>2022-07-28T07:51:53Z</time>
      </trkpt>
      <trkpt lat="44.65239" lon="5.24406">
        <ele>844</ele>
        <time>2022-07-28T07:51:58Z</time>
      </trkpt>
      <trkpt lat="44.65209" lon="5.24421">
        <ele>839</ele>
        <time>2022-07-28T07:52:08Z</time>
      </trkpt>
      <trkpt lat="44.65149" lon="5.24427">
        <ele>836</ele>
        <time>2022-07-28T07:52:33Z</time>
      </trkpt>
      <trkpt lat="44.65135" lon="5.2444">
        <ele>834</ele>
        <time>2022-07-28T07:52:40Z</time>
      </trkpt>
      <trkpt lat="44.65121" lon="5.24509">
        <ele>828</ele>
        <time>2022-07-28T07:52:58Z</time>
      </trkpt>
      <trkpt lat="44.65117" lon="5.24526">
        <ele>826</ele>
        <time>2022-07-28T07:53:03Z</time>
      </trkpt>
      <trkpt lat="44.65117" lon="5.2454">
        <ele>825</ele>
        <time>2022-07-28T07:53:07Z</time>
      </trkpt>
      <trkpt lat="44.65104" lon="5.24575">
        <ele>820</ele>
        <time>2022-07-28T07:53:16Z</time>
      </trkpt>
      <trkpt lat="44.651" lon="5.24584">
        <ele>817</ele>
        <time>2022-07-28T07:53:20Z</time>
      </trkpt>
      <trkpt lat="44.65094" lon="5.24591">
        <ele>815</ele>
        <time>2022-07-28T07:53:24Z</time>
      </trkpt>
      <trkpt lat="44.65085" lon="5.24594">
        <ele>813</ele>
        <time>2022-07-28T07:53:27Z</time>
      </trkpt>
      <trkpt lat="44.65076" lon="5.24592">
        <ele>812</ele>
        <time>2022-07-28T07:53:30Z</time>
      </trkpt>
      <trkpt lat="44.65064" lon="5.24587">
        <ele>810</ele>
        <time>2022-07-28T07:53:34Z</time>
      </trkpt>
      <trkpt lat="44.65055" lon="5.24587">
        <ele>809</ele>
        <time>2022-07-28T07:53:37Z</time>
      </trkpt>
      <trkpt lat="44.65046" lon="5.24591">
        <ele>808</ele>
        <time>2022-07-28T07:53:40Z</time>
      </trkpt>
      <trkpt lat="44.6504" lon="5.24598">
        <ele>806</ele>
        <time>2022-07-28T07:53:44Z</time>
      </trkpt>
      <trkpt lat="44.65036" lon="5.2461">
        <ele>806</ele>
        <time>2022-07-28T07:53:48Z</time>
      </trkpt>
      <trkpt lat="44.65035" lon="5.24643">
        <ele>803</ele>
        <time>2022-07-28T07:53:57Z</time>
      </trkpt>
      <trkpt lat="44.6504" lon="5.24661">
        <ele>801</ele>
        <time>2022-07-28T07:54:02Z</time>
      </trkpt>
      <trkpt lat="44.65043" lon="5.24673">
        <ele>799</ele>
        <time>2022-07-28T07:54:05Z</time>
      </trkpt>
      <trkpt lat="44.65044" lon="5.24686">
        <ele>797</ele>
        <time>2022-07-28T07:54:08Z</time>
      </trkpt>
      <trkpt lat="44.65042" lon="5.24697">
        <ele>796</ele>
        <time>2022-07-28T07:54:11Z</time>
      </trkpt>
      <trkpt lat="44.65038" lon="5.24706">
        <ele>795</ele>
        <time>2022-07-28T07:54:13Z</time>
      </trkpt>
      <trkpt lat="44.65015" lon="5.24735">
        <ele>789</ele>
        <time>2022-07-28T07:54:24Z</time>
      </trkpt>
      <trkpt lat="44.64997" lon="5.24786">
        <ele>783</ele>
        <time>2022-07-28T07:54:38Z</time>
      </trkpt>
      <trkpt lat="44.6499" lon="5.24799">
        <ele>781</ele>
        <time>2022-07-28T07:54:42Z</time>
      </trkpt>
      <trkpt lat="44.6498" lon="5.24809">
        <ele>779</ele>
        <time>2022-07-28T07:54:46Z</time>
      </trkpt>
      <trkpt lat="44.64971" lon="5.24811">
        <ele>777</ele>
        <time>2022-07-28T07:54:50Z</time>
      </trkpt>
      <trkpt lat="44.64963" lon="5.24816">
        <ele>775</ele>
        <time>2022-07-28T07:54:53Z</time>
      </trkpt>
      <trkpt lat="44.64956" lon="5.24821">
        <ele>773</ele>
        <time>2022-07-28T07:54:56Z</time>
      </trkpt>
      <trkpt lat="44.64948" lon="5.24824">
        <ele>772</ele>
        <time>2022-07-28T07:54:59Z</time>
      </trkpt>
      <trkpt lat="44.64943" lon="5.24833">
        <ele>770</ele>
        <time>2022-07-28T07:55:03Z</time>
      </trkpt>
      <trkpt lat="44.64943" lon="5.24844">
        <ele>768</ele>
        <time>2022-07-28T07:55:07Z</time>
      </trkpt>
      <trkpt lat="44.6494" lon="5.24856">
        <ele>768</ele>
        <time>2022-07-28T07:55:10Z</time>
      </trkpt>
      <trkpt lat="44.64939" lon="5.24872">
        <ele>765</ele>
        <time>2022-07-28T07:55:15Z</time>
      </trkpt>
      <trkpt lat="44.64953" lon="5.24864">
        <ele>760</ele>
        <time>2022-07-28T07:55:38Z</time>
      </trkpt>
      <trkpt lat="44.65043" lon="5.24842">
        <ele>757</ele>
        <time>2022-07-28T07:56:01Z</time>
      </trkpt>
      <trkpt lat="44.65059" lon="5.24829">
        <ele>756</ele>
        <time>2022-07-28T07:56:05Z</time>
      </trkpt>
      <trkpt lat="44.65067" lon="5.24831">
        <ele>756</ele>
        <time>2022-07-28T07:56:07Z</time>
      </trkpt>
      <trkpt lat="44.65096" lon="5.24896">
        <ele>758</ele>
        <time>2022-07-28T07:56:38Z</time>
      </trkpt>
      <trkpt lat="44.65126" lon="5.24959">
        <ele>764</ele>
        <time>2022-07-28T07:57:08Z</time>
      </trkpt>
      <trkpt lat="44.65128" lon="5.24982">
        <ele>766</ele>
        <time>2022-07-28T07:57:17Z</time>
      </trkpt>
      <trkpt lat="44.65137" lon="5.25001">
        <ele>768</ele>
        <time>2022-07-28T07:57:26Z</time>
      </trkpt>
      <trkpt lat="44.6515" lon="5.25012">
        <ele>769</ele>
        <time>2022-07-28T07:57:34Z</time>
      </trkpt>
      <trkpt lat="44.65156" lon="5.25022">
        <ele>770</ele>
        <time>2022-07-28T07:57:38Z</time>
      </trkpt>
      <trkpt lat="44.65166" lon="5.25044">
        <ele>770</ele>
        <time>2022-07-28T07:57:42Z</time>
      </trkpt>
      <trkpt lat="44.65171" lon="5.25069">
        <ele>769</ele>
        <time>2022-07-28T07:57:46Z</time>
      </trkpt>
      <trkpt lat="44.65177" lon="5.25076">
        <ele>768</ele>
        <time>2022-07-28T07:57:48Z</time>
      </trkpt>
      <trkpt lat="44.65237" lon="5.25095">
        <ele>772</ele>
        <time>2022-07-28T07:58:18Z</time>
      </trkpt>
      <trkpt lat="44.65253" lon="5.251">
        <ele>776</ele>
        <time>2022-07-28T07:58:28Z</time>
      </trkpt>
      <trkpt lat="44.6526" lon="5.25103">
        <ele>778</ele>
        <time>2022-07-28T07:58:33Z</time>
      </trkpt>
      <trkpt lat="44.65267" lon="5.2511">
        <ele>780</ele>
        <time>2022-07-28T07:58:38Z</time>
      </trkpt>
      <trkpt lat="44.65275" lon="5.25128">
        <ele>783</ele>
        <time>2022-07-28T07:58:46Z</time>
      </trkpt>
      <trkpt lat="44.65282" lon="5.25132">
        <ele>784</ele>
        <time>2022-07-28T07:58:50Z</time>
      </trkpt>
      <trkpt lat="44.65298" lon="5.25136">
        <ele>787</ele>
        <time>2022-07-28T07:59:00Z</time>
      </trkpt>
      <trkpt lat="44.65337" lon="5.25154">
        <ele>793</ele>
        <time>2022-07-28T07:59:25Z</time>
      </trkpt>
      <trkpt lat="44.65351" lon="5.25165">
        <ele>795</ele>
        <time>2022-07-28T07:59:37Z</time>
      </trkpt>
      <trkpt lat="44.65373" lon="5.25177">
        <ele>800</ele>
        <time>2022-07-28T08:00:10Z</time>
      </trkpt>
      <trkpt lat="44.65378" lon="5.25186">
        <ele>802</ele>
        <time>2022-07-28T08:00:17Z</time>
      </trkpt>
      <trkpt lat="44.65376" lon="5.25209">
        <ele>802</ele>
        <time>2022-07-28T08:00:28Z</time>
      </trkpt>
      <trkpt lat="44.6538" lon="5.25219">
        <ele>802</ele>
        <time>2022-07-28T08:00:34Z</time>
      </trkpt>
      <trkpt lat="44.65392" lon="5.25232">
        <ele>804</ele>
        <time>2022-07-28T08:00:45Z</time>
      </trkpt>
      <trkpt lat="44.65401" lon="5.25236">
        <ele>805</ele>
        <time>2022-07-28T08:00:51Z</time>
      </trkpt>
      <trkpt lat="44.65409" lon="5.25236">
        <ele>806</ele>
        <time>2022-07-28T08:00:56Z</time>
      </trkpt>
      <trkpt lat="44.65417" lon="5.2524">
        <ele>807</ele>
        <time>2022-07-28T08:01:01Z</time>
      </trkpt>
      <trkpt lat="44.65423" lon="5.25247">
        <ele>808</ele>
        <time>2022-07-28T08:01:06Z</time>
      </trkpt>
      <trkpt lat="44.65428" lon="5.25256">
        <ele>810</ele>
        <time>2022-07-28T08:01:11Z</time>
      </trkpt>
      <trkpt lat="44.6544" lon="5.2527">
        <ele>812</ele>
        <time>2022-07-28T08:01:19Z</time>
      </trkpt>
      <trkpt lat="44.65444" lon="5.2528">
        <ele>813</ele>
        <time>2022-07-28T08:01:24Z</time>
      </trkpt>
      <trkpt lat="44.65445" lon="5.25302">
        <ele>816</ele>
        <time>2022-07-28T08:01:33Z</time>
      </trkpt>
      <trkpt lat="44.65452" lon="5.25304">
        <ele>817</ele>
        <time>2022-07-28T08:01:38Z</time>
      </trkpt>
      <trkpt lat="44.65458" lon="5.25296">
        <ele>819</ele>
        <time>2022-07-28T08:01:43Z</time>
      </trkpt>
      <trkpt lat="44.65464" lon="5.2529">
        <ele>820</ele>
        <time>2022-07-28T08:01:47Z</time>
      </trkpt>
      <trkpt lat="44.65489" lon="5.25282">
        <ele>824</ele>
        <time>2022-07-28T08:02:01Z</time>
      </trkpt>
      <trkpt lat="44.65495" lon="5.25275">
        <ele>824</ele>
        <time>2022-07-28T08:02:04Z</time>
      </trkpt>
      <trkpt lat="44.65516" lon="5.25243">
        <ele>822</ele>
        <time>2022-07-28T08:02:11Z</time>
      </trkpt>
      <trkpt lat="44.65586" lon="5.25168">
        <ele>821</ele>
        <time>2022-07-28T08:02:42Z</time>
      </trkpt>
      <trkpt lat="44.65625" lon="5.25109">
        <ele>828</ele>
        <time>2022-07-28T08:03:13Z</time>
      </trkpt>
      <trkpt lat="44.65646" lon="5.2509">
        <ele>831</ele>
        <time>2022-07-28T08:03:25Z</time>
      </trkpt>
      <trkpt lat="44.65675" lon="5.2508">
        <ele>833</ele>
        <time>2022-07-28T08:03:37Z</time>
      </trkpt>
      <trkpt lat="44.65725" lon="5.25039">
        <ele>836</ele>
        <time>2022-07-28T08:04:04Z</time>
      </trkpt>
      <trkpt lat="44.65733" lon="5.25038">
        <ele>836</ele>
        <time>2022-07-28T08:04:07Z</time>
      </trkpt>
      <trkpt lat="44.65777" lon="5.25014">
        <ele>840</ele>
        <time>2022-07-28T08:04:28Z</time>
      </trkpt>
      <trkpt lat="44.65823" lon="5.25003">
        <ele>846</ele>
        <time>2022-07-28T08:04:55Z</time>
      </trkpt>
      <trkpt lat="44.65856" lon="5.25003">
        <ele>849</ele>
        <time>2022-07-28T08:05:12Z</time>
      </trkpt>
      <trkpt lat="44.65897" lon="5.24992">
        <ele>854</ele>
        <time>2022-07-28T08:05:33Z</time>
      </trkpt>
      <trkpt lat="44.65925" lon="5.24974">
        <ele>858</ele>
        <time>2022-07-28T08:05:49Z</time>
      </trkpt>
      <trkpt lat="44.65977" lon="5.2492">
        <ele>866</ele>
        <time>2022-07-28T08:06:22Z</time>
      </trkpt>
      <trkpt lat="44.66007" lon="5.24897">
        <ele>870</ele>
        <time>2022-07-28T08:06:41Z</time>
      </trkpt>
      <trkpt lat="44.66022" lon="5.24891">
        <ele>872</ele>
        <time>2022-07-28T08:06:51Z</time>
      </trkpt>
      <trkpt lat="44.66029" lon="5.24886">
        <ele>873</ele>
        <time>2022-07-28T08:06:55Z</time>
      </trkpt>
      <trkpt lat="44.66046" lon="5.24861">
        <ele>878</ele>
        <time>2022-07-28T08:07:11Z</time>
      </trkpt>
      <trkpt lat="44.66061" lon="5.24853">
        <ele>880</ele>
        <time>2022-07-28T08:07:20Z</time>
      </trkpt>
      <trkpt lat="44.66079" lon="5.24853">
        <ele>882</ele>
        <time>2022-07-28T08:07:29Z</time>
      </trkpt>
      <trkpt lat="44.66087" lon="5.24855">
        <ele>883</ele>
        <time>2022-07-28T08:07:32Z</time>
      </trkpt>
      <trkpt lat="44.66102" lon="5.24852">
        <ele>884</ele>
        <time>2022-07-28T08:07:40Z</time>
      </trkpt>
      <trkpt lat="44.66147" lon="5.24833">
        <ele>889</ele>
        <time>2022-07-28T08:08:06Z</time>
      </trkpt>
      <trkpt lat="44.66163" lon="5.24835">
        <ele>892</ele>
        <time>2022-07-28T08:08:14Z</time>
      </trkpt>
      <trkpt lat="44.66197" lon="5.24828">
        <ele>897</ele>
        <time>2022-07-28T08:08:34Z</time>
      </trkpt>
      <trkpt lat="44.66223" lon="5.24829">
        <ele>899</ele>
        <time>2022-07-28T08:08:47Z</time>
      </trkpt>
      <trkpt lat="44.66238" lon="5.24838">
        <ele>901</ele>
        <time>2022-07-28T08:08:54Z</time>
      </trkpt>
      <trkpt lat="44.66259" lon="5.24856">
        <ele>904</ele>
        <time>2022-07-28T08:09:07Z</time>
      </trkpt>
      <trkpt lat="44.66278" lon="5.24882">
        <ele>907</ele>
        <time>2022-07-28T08:09:19Z</time>
      </trkpt>
      <trkpt lat="44.66293" lon="5.24889">
        <ele>908</ele>
        <time>2022-07-28T08:09:27Z</time>
      </trkpt>
      <trkpt lat="44.66298" lon="5.24896">
        <ele>908</ele>
        <time>2022-07-28T08:09:31Z</time>
      </trkpt>
      <trkpt lat="44.66304" lon="5.24902">
        <ele>909</ele>
        <time>2022-07-28T08:09:35Z</time>
      </trkpt>
      <trkpt lat="44.66309" lon="5.2491">
        <ele>912</ele>
        <time>2022-07-28T08:09:39Z</time>
      </trkpt>
      <trkpt lat="44.66316" lon="5.24932">
        <ele>914</ele>
        <time>2022-07-28T08:09:48Z</time>
      </trkpt>
      <trkpt lat="44.66326" lon="5.24949">
        <ele>917</ele>
        <time>2022-07-28T08:09:57Z</time>
      </trkpt>
      <trkpt lat="44.66332" lon="5.24957">
        <ele>919</ele>
        <time>2022-07-28T08:10:03Z</time>
      </trkpt>
      <trkpt lat="44.66337" lon="5.24965">
        <ele>921</ele>
        <time>2022-07-28T08:10:07Z</time>
      </trkpt>
      <trkpt lat="44.66339" lon="5.24919">
        <ele>932</ele>
        <time>2022-07-28T08:10:53Z</time>
      </trkpt>
      <trkpt lat="44.6634" lon="5.24908">
        <ele>933</ele>
        <time>2022-07-28T08:10:57Z</time>
      </trkpt>
      <trkpt lat="44.66339" lon="5.24852">
        <ele>941</ele>
        <time>2022-07-28T08:11:22Z</time>
      </trkpt>
      <trkpt lat="44.66335" lon="5.24831">
        <ele>944</ele>
        <time>2022-07-28T08:11:30Z</time>
      </trkpt>
      <trkpt lat="44.66331" lon="5.2482">
        <ele>946</ele>
        <time>2022-07-28T08:11:35Z</time>
      </trkpt>
      <trkpt lat="44.66339" lon="5.24816">
        <ele>949</ele>
        <time>2022-07-28T08:11:45Z</time>
      </trkpt>
      <trkpt lat="44.66354" lon="5.24819">
        <ele>951</ele>
        <time>2022-07-28T08:11:55Z</time>
      </trkpt>
      <trkpt lat="44.66363" lon="5.24815">
        <ele>954</ele>
        <time>2022-07-28T08:21:32Z</time>
      </trkpt>
      <trkpt lat="44.66439" lon="5.2487">
        <ele>949</ele>
        <time>2022-07-28T08:21:57Z</time>
      </trkpt>
      <trkpt lat="44.66522" lon="5.24938">
        <ele>940</ele>
        <time>2022-07-28T08:22:27Z</time>
      </trkpt>
      <trkpt lat="44.66575" lon="5.24973">
        <ele>933</ele>
        <time>2022-07-28T08:22:46Z</time>
      </trkpt>
      <trkpt lat="44.66567" lon="5.24964">
        <ele>930</ele>
        <time>2022-07-28T08:23:22Z</time>
      </trkpt>
      <trkpt lat="44.665" lon="5.24875">
        <ele>923</ele>
        <time>2022-07-28T08:23:53Z</time>
      </trkpt>
      <trkpt lat="44.66465" lon="5.24812">
        <ele>917</ele>
        <time>2022-07-28T08:24:12Z</time>
      </trkpt>
      <trkpt lat="44.66474" lon="5.24813">
        <ele>913</ele>
        <time>2022-07-28T08:24:27Z</time>
      </trkpt>
      <trkpt lat="44.66523" lon="5.24864">
        <ele>908</ele>
        <time>2022-07-28T08:24:53Z</time>
      </trkpt>
      <trkpt lat="44.66608" lon="5.24914">
        <ele>899</ele>
        <time>2022-07-28T08:25:24Z</time>
      </trkpt>
      <trkpt lat="44.66691" lon="5.24946">
        <ele>890</ele>
        <time>2022-07-28T08:25:55Z</time>
      </trkpt>
      <trkpt lat="44.667" lon="5.24949">
        <ele>890</ele>
        <time>2022-07-28T08:25:58Z</time>
      </trkpt>
      <trkpt lat="44.66778" lon="5.24953">
        <ele>881</ele>
        <time>2022-07-28T08:26:26Z</time>
      </trkpt>
      <trkpt lat="44.66865" lon="5.24923">
        <ele>872</ele>
        <time>2022-07-28T08:26:58Z</time>
      </trkpt>
      <trkpt lat="44.66872" lon="5.2492">
        <ele>871</ele>
        <time>2022-07-28T08:27:01Z</time>
      </trkpt>
      <trkpt lat="44.66905" lon="5.24913">
        <ele>867</ele>
        <time>2022-07-28T08:27:21Z</time>
      </trkpt>
      <trkpt lat="44.66981" lon="5.24944">
        <ele>860</ele>
        <time>2022-07-28T08:27:53Z</time>
      </trkpt>
      <trkpt lat="44.66996" lon="5.24955">
        <ele>857</ele>
        <time>2022-07-28T08:28:00Z</time>
      </trkpt>
      <trkpt lat="44.67003" lon="5.24964">
        <ele>856</ele>
        <time>2022-07-28T08:28:11Z</time>
      </trkpt>
      <trkpt lat="44.66971" lon="5.24899">
        <ele>846</ele>
        <time>2022-07-28T08:29:20Z</time>
      </trkpt>
      <trkpt lat="44.66957" lon="5.24883">
        <ele>844</ele>
        <time>2022-07-28T08:29:27Z</time>
      </trkpt>
      <trkpt lat="44.669" lon="5.24847">
        <ele>838</ele>
        <time>2022-07-28T08:29:53Z</time>
      </trkpt>
      <trkpt lat="44.66826" lon="5.24835">
        <ele>830</ele>
        <time>2022-07-28T08:30:19Z</time>
      </trkpt>
      <trkpt lat="44.66902" lon="5.24806">
        <ele>819</ele>
        <time>2022-07-28T08:33:22Z</time>
      </trkpt>
      <trkpt lat="44.66935" lon="5.24809">
        <ele>815</ele>
        <time>2022-07-28T08:33:33Z</time>
      </trkpt>
      <trkpt lat="44.66943" lon="5.24813">
        <ele>814</ele>
        <time>2022-07-28T08:33:36Z</time>
      </trkpt>
      <trkpt lat="44.66995" lon="5.2483">
        <ele>808</ele>
        <time>2022-07-28T08:33:54Z</time>
      </trkpt>
      <trkpt lat="44.67003" lon="5.24836">
        <ele>808</ele>
        <time>2022-07-28T08:33:57Z</time>
      </trkpt>
      <trkpt lat="44.67063" lon="5.24897">
        <ele>799</ele>
        <time>2022-07-28T08:34:28Z</time>
      </trkpt>
      <trkpt lat="44.67081" lon="5.24909">
        <ele>797</ele>
        <time>2022-07-28T08:34:33Z</time>
      </trkpt>
      <trkpt lat="44.67122" lon="5.24939">
        <ele>793</ele>
        <time>2022-07-28T08:34:54Z</time>
      </trkpt>
      <trkpt lat="44.67153" lon="5.24946">
        <ele>790</ele>
        <time>2022-07-28T08:35:02Z</time>
      </trkpt>
      <trkpt lat="44.67175" lon="5.24937">
        <ele>789</ele>
        <time>2022-07-28T08:35:09Z</time>
      </trkpt>
      <trkpt lat="44.67222" lon="5.24906">
        <ele>783</ele>
        <time>2022-07-28T08:35:26Z</time>
      </trkpt>
      <trkpt lat="44.67237" lon="5.24904">
        <ele>779</ele>
        <time>2022-07-28T08:36:35Z</time>
      </trkpt>
      <trkpt lat="44.67229" lon="5.24903">
        <ele>777</ele>
        <time>2022-07-28T08:38:19Z</time>
      </trkpt>
      <trkpt lat="44.67195" lon="5.24902">
        <ele>774</ele>
        <time>2022-07-28T08:38:33Z</time>
      </trkpt>
      <trkpt lat="44.67166" lon="5.24906">
        <ele>772</ele>
        <time>2022-07-28T08:38:42Z</time>
      </trkpt>
      <trkpt lat="44.67139" lon="5.24895">
        <ele>768</ele>
        <time>2022-07-28T08:38:54Z</time>
      </trkpt>
      <trkpt lat="44.67103" lon="5.24854">
        <ele>763</ele>
        <time>2022-07-28T08:39:16Z</time>
      </trkpt>
      <trkpt lat="44.67077" lon="5.24819">
        <ele>758</ele>
        <time>2022-07-28T08:39:36Z</time>
      </trkpt>
      <trkpt lat="44.67063" lon="5.24776">
        <ele>754</ele>
        <time>2022-07-28T08:40:08Z</time>
      </trkpt>
      <trkpt lat="44.67073" lon="5.24778">
        <ele>748</ele>
        <time>2022-07-28T08:40:51Z</time>
      </trkpt>
      <trkpt lat="44.67077" lon="5.24789">
        <ele>747</ele>
        <time>2022-07-28T08:40:55Z</time>
      </trkpt>
      <trkpt lat="44.6709" lon="5.24805">
        <ele>745</ele>
        <time>2022-07-28T08:41:02Z</time>
      </trkpt>
      <trkpt lat="44.67117" lon="5.24818">
        <ele>740</ele>
        <time>2022-07-28T08:41:16Z</time>
      </trkpt>
      <trkpt lat="44.67126" lon="5.24822">
        <ele>738</ele>
        <time>2022-07-28T08:41:20Z</time>
      </trkpt>
      <trkpt lat="44.67133" lon="5.24828">
        <ele>737</ele>
        <time>2022-07-28T08:41:23Z</time>
      </trkpt>
      <trkpt lat="44.67139" lon="5.24835">
        <ele>735</ele>
        <time>2022-07-28T08:41:27Z</time>
      </trkpt>
      <trkpt lat="44.67146" lon="5.2484">
        <ele>734</ele>
        <time>2022-07-28T08:41:30Z</time>
      </trkpt>
      <trkpt lat="44.67154" lon="5.24841">
        <ele>729</ele>
        <time>2022-07-28T08:41:58Z</time>
      </trkpt>
      <trkpt lat="44.67179" lon="5.24828">
        <ele>727</ele>
        <time>2022-07-28T08:42:13Z</time>
      </trkpt>
      <trkpt lat="44.67205" lon="5.24803">
        <ele>722</ele>
        <time>2022-07-28T08:42:26Z</time>
      </trkpt>
      <trkpt lat="44.67213" lon="5.24801">
        <ele>721</ele>
        <time>2022-07-28T08:42:30Z</time>
      </trkpt>
      <trkpt lat="44.67221" lon="5.24789">
        <ele>719</ele>
        <time>2022-07-28T08:42:41Z</time>
      </trkpt>
      <trkpt lat="44.67229" lon="5.24793">
        <ele>718</ele>
        <time>2022-07-28T08:42:46Z</time>
      </trkpt>
      <trkpt lat="44.67251" lon="5.24773">
        <ele>714</ele>
        <time>2022-07-28T08:42:58Z</time>
      </trkpt>
      <trkpt lat="44.67258" lon="5.24777">
        <ele>712</ele>
        <time>2022-07-28T08:43:08Z</time>
      </trkpt>
      <trkpt lat="44.67276" lon="5.24749">
        <ele>710</ele>
        <time>2022-07-28T08:43:28Z</time>
      </trkpt>
      <trkpt lat="44.67285" lon="5.24743">
        <ele>709</ele>
        <time>2022-07-28T08:43:31Z</time>
      </trkpt>
      <trkpt lat="44.67308" lon="5.24716">
        <ele>703</ele>
        <time>2022-07-28T08:43:41Z</time>
      </trkpt>
      <trkpt lat="44.67315" lon="5.24713">
        <ele>702</ele>
        <time>2022-07-28T08:43:43Z</time>
      </trkpt>
      <trkpt lat="44.67334" lon="5.24714">
        <ele>699</ele>
        <time>2022-07-28T08:43:50Z</time>
      </trkpt>
      <trkpt lat="44.67354" lon="5.24731">
        <ele>698</ele>
        <time>2022-07-28T08:43:58Z</time>
      </trkpt>
      <trkpt lat="44.67361" lon="5.24733">
        <ele>697</ele>
        <time>2022-07-28T08:44:01Z</time>
      </trkpt>
      <trkpt lat="44.67383" lon="5.24745">
        <ele>693</ele>
        <time>2022-07-28T08:44:08Z</time>
      </trkpt>
      <trkpt lat="44.67454" lon="5.24796">
        <ele>683</ele>
        <time>2022-07-28T08:44:29Z</time>
      </trkpt>
      <trkpt lat="44.67461" lon="5.24805">
        <ele>681</ele>
        <time>2022-07-28T08:44:32Z</time>
      </trkpt>
      <trkpt lat="44.6747" lon="5.2481">
        <ele>678</ele>
        <time>2022-07-28T08:44:36Z</time>
      </trkpt>
      <trkpt lat="44.67464" lon="5.24793">
        <ele>671</ele>
        <time>2022-07-28T08:45:20Z</time>
      </trkpt>
      <trkpt lat="44.6744" lon="5.24752">
        <ele>670</ele>
        <time>2022-07-28T08:45:32Z</time>
      </trkpt>
      <trkpt lat="44.67429" lon="5.24736">
        <ele>668</ele>
        <time>2022-07-28T08:45:37Z</time>
      </trkpt>
      <trkpt lat="44.67372" lon="5.24668">
        <ele>664</ele>
        <time>2022-07-28T08:46:04Z</time>
      </trkpt>
      <trkpt lat="44.67367" lon="5.24653">
        <ele>665</ele>
        <time>2022-07-28T08:46:12Z</time>
      </trkpt>
      <trkpt lat="44.67363" lon="5.24631">
        <ele>665</ele>
        <time>2022-07-28T08:46:21Z</time>
      </trkpt>
      <trkpt lat="44.67363" lon="5.24616">
        <ele>664</ele>
        <time>2022-07-28T08:46:26Z</time>
      </trkpt>
      <trkpt lat="44.67369" lon="5.24609">
        <ele>663</ele>
        <time>2022-07-28T08:46:29Z</time>
      </trkpt>
      <trkpt lat="44.67377" lon="5.24614">
        <ele>657</ele>
        <time>2022-07-28T08:46:35Z</time>
      </trkpt>
      <trkpt lat="44.67377" lon="5.2463">
        <ele>655</ele>
        <time>2022-07-28T08:46:40Z</time>
      </trkpt>
      <trkpt lat="44.67379" lon="5.24643">
        <ele>654</ele>
        <time>2022-07-28T08:46:43Z</time>
      </trkpt>
      <trkpt lat="44.67383" lon="5.24653">
        <ele>653</ele>
        <time>2022-07-28T08:46:45Z</time>
      </trkpt>
      <trkpt lat="44.67393" lon="5.24664">
        <ele>653</ele>
        <time>2022-07-28T08:46:48Z</time>
      </trkpt>
      <trkpt lat="44.67429" lon="5.24691">
        <ele>649</ele>
        <time>2022-07-28T08:46:56Z</time>
      </trkpt>
      <trkpt lat="44.6747" lon="5.2472">
        <ele>643</ele>
        <time>2022-07-28T08:47:05Z</time>
      </trkpt>
      <trkpt lat="44.67551" lon="5.2478">
        <ele>630</ele>
        <time>2022-07-28T08:47:23Z</time>
      </trkpt>
      <trkpt lat="44.67575" lon="5.24812">
        <ele>627</ele>
        <time>2022-07-28T08:47:29Z</time>
      </trkpt>
      <trkpt lat="44.67578" lon="5.24827">
        <ele>625</ele>
        <time>2022-07-28T08:47:31Z</time>
      </trkpt>
      <trkpt lat="44.67579" lon="5.24877">
        <ele>621</ele>
        <time>2022-07-28T08:47:38Z</time>
      </trkpt>
      <trkpt lat="44.67575" lon="5.24926">
        <ele>618</ele>
        <time>2022-07-28T08:47:44Z</time>
      </trkpt>
      <trkpt lat="44.6758" lon="5.25031">
        <ele>611</ele>
        <time>2022-07-28T08:47:58Z</time>
      </trkpt>
      <trkpt lat="44.67586" lon="5.25048">
        <ele>610</ele>
        <time>2022-07-28T08:48:01Z</time>
      </trkpt>
      <trkpt lat="44.67601" lon="5.25076">
        <ele>607</ele>
        <time>2022-07-28T08:48:06Z</time>
      </trkpt>
      <trkpt lat="44.67604" lon="5.25088">
        <ele>606</ele>
        <time>2022-07-28T08:48:08Z</time>
      </trkpt>
      <trkpt lat="44.67606" lon="5.25099">
        <ele>605</ele>
        <time>2022-07-28T08:48:10Z</time>
      </trkpt>
      <trkpt lat="44.67611" lon="5.25107">
        <ele>605</ele>
        <time>2022-07-28T08:48:12Z</time>
      </trkpt>
      <trkpt lat="44.67636" lon="5.25119">
        <ele>601</ele>
        <time>2022-07-28T08:48:18Z</time>
      </trkpt>
      <trkpt lat="44.67649" lon="5.2513">
        <ele>599</ele>
        <time>2022-07-28T08:48:21Z</time>
      </trkpt>
      <trkpt lat="44.67659" lon="5.25134">
        <ele>597</ele>
        <time>2022-07-28T08:48:23Z</time>
      </trkpt>
      <trkpt lat="44.67692" lon="5.25139">
        <ele>595</ele>
        <time>2022-07-28T08:48:30Z</time>
      </trkpt>
      <trkpt lat="44.67743" lon="5.25162">
        <ele>589</ele>
        <time>2022-07-28T08:48:40Z</time>
      </trkpt>
      <trkpt lat="44.67785" lon="5.25157">
        <ele>585</ele>
        <time>2022-07-28T08:48:47Z</time>
      </trkpt>
      <trkpt lat="44.6781" lon="5.25142">
        <ele>583</ele>
        <time>2022-07-28T08:48:51Z</time>
      </trkpt>
      <trkpt lat="44.67863" lon="5.25095">
        <ele>578</ele>
        <time>2022-07-28T08:49:02Z</time>
      </trkpt>
      <trkpt lat="44.67889" lon="5.2509">
        <ele>576</ele>
        <time>2022-07-28T08:49:07Z</time>
      </trkpt>
      <trkpt lat="44.67898" lon="5.25092">
        <ele>575</ele>
        <time>2022-07-28T08:49:09Z</time>
      </trkpt>
      <trkpt lat="44.67905" lon="5.25098">
        <ele>574</ele>
        <time>2022-07-28T08:49:11Z</time>
      </trkpt>
      <trkpt lat="44.67909" lon="5.25117">
        <ele>573</ele>
        <time>2022-07-28T08:49:14Z</time>
      </trkpt>
      <trkpt lat="44.67909" lon="5.25141">
        <ele>572</ele>
        <time>2022-07-28T08:49:17Z</time>
      </trkpt>
      <trkpt lat="44.67914" lon="5.25156">
        <ele>571</ele>
        <time>2022-07-28T08:49:19Z</time>
      </trkpt>
      <trkpt lat="44.67954" lon="5.25229">
        <ele>566</ele>
        <time>2022-07-28T08:49:30Z</time>
      </trkpt>
      <trkpt lat="44.67964" lon="5.25239">
        <ele>566</ele>
        <time>2022-07-28T08:49:32Z</time>
      </trkpt>
      <trkpt lat="44.67991" lon="5.25243">
        <ele>564</ele>
        <time>2022-07-28T08:49:36Z</time>
      </trkpt>
      <trkpt lat="44.68011" lon="5.25233">
        <ele>562</ele>
        <time>2022-07-28T08:49:40Z</time>
      </trkpt>
      <trkpt lat="44.68023" lon="5.25234">
        <ele>561</ele>
        <time>2022-07-28T08:49:42Z</time>
      </trkpt>
      <trkpt lat="44.68119" lon="5.25294">
        <ele>556</ele>
        <time>2022-07-28T08:49:57Z</time>
      </trkpt>
      <trkpt lat="44.68138" lon="5.25318">
        <ele>553</ele>
        <time>2022-07-28T08:50:01Z</time>
      </trkpt>
      <trkpt lat="44.6815" lon="5.25351">
        <ele>552</ele>
        <time>2022-07-28T08:50:06Z</time>
      </trkpt>
      <trkpt lat="44.68153" lon="5.25402">
        <ele>546</ele>
        <time>2022-07-28T08:50:17Z</time>
      </trkpt>
      <trkpt lat="44.68165" lon="5.25349">
        <ele>545</ele>
        <time>2022-07-28T08:50:32Z</time>
      </trkpt>
      <trkpt lat="44.68179" lon="5.25322">
        <ele>544</ele>
        <time>2022-07-28T08:50:36Z</time>
      </trkpt>
      <trkpt lat="44.68228" lon="5.25269">
        <ele>540</ele>
        <time>2022-07-28T08:50:47Z</time>
      </trkpt>
      <trkpt lat="44.68244" lon="5.2526">
        <ele>539</ele>
        <time>2022-07-28T08:50:54Z</time>
      </trkpt>
      <trkpt lat="44.68317" lon="5.25265">
        <ele>544</ele>
        <time>2022-07-28T08:51:25Z</time>
      </trkpt>
      <trkpt lat="44.68326" lon="5.25265">
        <ele>545</ele>
        <time>2022-07-28T08:51:30Z</time>
      </trkpt>
      <trkpt lat="44.68366" lon="5.25259">
        <ele>548</ele>
        <time>2022-07-28T08:51:52Z</time>
      </trkpt>
      <trkpt lat="44.68374" lon="5.25262">
        <ele>549</ele>
        <time>2022-07-28T08:51:56Z</time>
      </trkpt>
      <trkpt lat="44.68379" lon="5.25271">
        <ele>550</ele>
        <time>2022-07-28T08:52:00Z</time>
      </trkpt>
      <trkpt lat="44.6838" lon="5.25282">
        <ele>550</ele>
        <time>2022-07-28T08:52:04Z</time>
      </trkpt>
      <trkpt lat="44.68376" lon="5.25304">
        <ele>552</ele>
        <time>2022-07-28T08:52:12Z</time>
      </trkpt>
      <trkpt lat="44.68375" lon="5.25314">
        <ele>553</ele>
        <time>2022-07-28T08:52:16Z</time>
      </trkpt>
      <trkpt lat="44.68382" lon="5.25322">
        <ele>554</ele>
        <time>2022-07-28T08:52:21Z</time>
      </trkpt>
      <trkpt lat="44.68388" lon="5.25316">
        <ele>556</ele>
        <time>2022-07-28T08:52:26Z</time>
      </trkpt>
      <trkpt lat="44.68392" lon="5.25307">
        <ele>557</ele>
        <time>2022-07-28T08:52:30Z</time>
      </trkpt>
      <trkpt lat="44.68443" lon="5.2526">
        <ele>565</ele>
        <time>2022-07-28T08:53:02Z</time>
      </trkpt>
      <trkpt lat="44.68446" lon="5.25249">
        <ele>565</ele>
        <time>2022-07-28T08:53:06Z</time>
      </trkpt>
      <trkpt lat="44.68436" lon="5.2523">
        <ele>566</ele>
        <time>2022-07-28T08:53:15Z</time>
      </trkpt>
      <trkpt lat="44.68416" lon="5.25207">
        <ele>568</ele>
        <time>2022-07-28T08:53:27Z</time>
      </trkpt>
      <trkpt lat="44.68402" lon="5.25196">
        <ele>569</ele>
        <time>2022-07-28T08:53:35Z</time>
      </trkpt>
      <trkpt lat="44.68373" lon="5.25184">
        <ele>572</ele>
        <time>2022-07-28T08:53:51Z</time>
      </trkpt>
      <trkpt lat="44.68369" lon="5.25174">
        <ele>573</ele>
        <time>2022-07-28T08:53:56Z</time>
      </trkpt>
      <trkpt lat="44.68381" lon="5.25159">
        <ele>575</ele>
        <time>2022-07-28T08:54:04Z</time>
      </trkpt>
      <trkpt lat="44.68457" lon="5.25102">
        <ele>578</ele>
        <time>2022-07-28T08:54:35Z</time>
      </trkpt>
      <trkpt lat="44.68509" lon="5.25067">
        <ele>577</ele>
        <time>2022-07-28T08:54:49Z</time>
      </trkpt>
      <trkpt lat="44.68547" lon="5.25017">
        <ele>574</ele>
        <time>2022-07-28T08:55:01Z</time>
      </trkpt>
      <trkpt lat="44.68555" lon="5.25">
        <ele>573</ele>
        <time>2022-07-28T08:55:05Z</time>
      </trkpt>
      <trkpt lat="44.68562" lon="5.24991">
        <ele>572</ele>
        <time>2022-07-28T08:55:08Z</time>
      </trkpt>
      <trkpt lat="44.68566" lon="5.24979">
        <ele>570</ele>
        <time>2022-07-28T08:55:11Z</time>
      </trkpt>
      <trkpt lat="44.68567" lon="5.24968">
        <ele>570</ele>
        <time>2022-07-28T08:55:13Z</time>
      </trkpt>
      <trkpt lat="44.6857" lon="5.24942">
        <ele>566</ele>
        <time>2022-07-28T08:55:18Z</time>
      </trkpt>
      <trkpt lat="44.68572" lon="5.24928">
        <ele>564</ele>
        <time>2022-07-28T08:55:20Z</time>
      </trkpt>
      <trkpt lat="44.68574" lon="5.24916">
        <ele>561</ele>
        <time>2022-07-28T08:55:22Z</time>
      </trkpt>
      <trkpt lat="44.68576" lon="5.24903">
        <ele>559</ele>
        <time>2022-07-28T08:55:24Z</time>
      </trkpt>
      <trkpt lat="44.68585" lon="5.24866">
        <ele>553</ele>
        <time>2022-07-28T08:55:31Z</time>
      </trkpt>
      <trkpt lat="44.68588" lon="5.24849">
        <ele>550</ele>
        <time>2022-07-28T08:55:34Z</time>
      </trkpt>
      <trkpt lat="44.68592" lon="5.24831">
        <ele>547</ele>
        <time>2022-07-28T08:55:38Z</time>
      </trkpt>
      <trkpt lat="44.68602" lon="5.24816">
        <ele>543</ele>
        <time>2022-07-28T08:55:43Z</time>
      </trkpt>
      <trkpt lat="44.68614" lon="5.24791">
        <ele>539</ele>
        <time>2022-07-28T08:55:49Z</time>
      </trkpt>
      <trkpt lat="44.6862" lon="5.24764">
        <ele>536</ele>
        <time>2022-07-28T08:55:53Z</time>
      </trkpt>
      <trkpt lat="44.6863" lon="5.2474">
        <ele>532</ele>
        <time>2022-07-28T08:55:57Z</time>
      </trkpt>
      <trkpt lat="44.68677" lon="5.2455">
        <ele>517</ele>
        <time>2022-07-28T08:56:27Z</time>
      </trkpt>
      <trkpt lat="44.68685" lon="5.24509">
        <ele>514</ele>
        <time>2022-07-28T08:56:34Z</time>
      </trkpt>
      <trkpt lat="44.68686" lon="5.24499">
        <ele>512</ele>
        <time>2022-07-28T08:56:36Z</time>
      </trkpt>
      <trkpt lat="44.68691" lon="5.24467">
        <ele>508</ele>
        <time>2022-07-28T08:56:41Z</time>
      </trkpt>
      <trkpt lat="44.68695" lon="5.24437">
        <ele>505</ele>
        <time>2022-07-28T08:56:46Z</time>
      </trkpt>
      <trkpt lat="44.68708" lon="5.24402">
        <ele>501</ele>
        <time>2022-07-28T08:56:52Z</time>
      </trkpt>
      <trkpt lat="44.68711" lon="5.2439">
        <ele>499</ele>
        <time>2022-07-28T08:56:54Z</time>
      </trkpt>
      <trkpt lat="44.68718" lon="5.24364">
        <ele>495</ele>
        <time>2022-07-28T08:56:59Z</time>
      </trkpt>
      <trkpt lat="44.68718" lon="5.2435">
        <ele>494</ele>
        <time>2022-07-28T08:57:02Z</time>
      </trkpt>
      <trkpt lat="44.68714" lon="5.24341">
        <ele>493</ele>
        <time>2022-07-28T08:57:04Z</time>
      </trkpt>
      <trkpt lat="44.68705" lon="5.24338">
        <ele>492</ele>
        <time>2022-07-28T08:57:07Z</time>
      </trkpt>
      <trkpt lat="44.68696" lon="5.24343">
        <ele>490</ele>
        <time>2022-07-28T08:57:10Z</time>
      </trkpt>
      <trkpt lat="44.68683" lon="5.24348">
        <ele>488</ele>
        <time>2022-07-28T08:57:14Z</time>
      </trkpt>
      <trkpt lat="44.68591" lon="5.24403">
        <ele>477</ele>
        <time>2022-07-28T08:57:39Z</time>
      </trkpt>
      <trkpt lat="44.68586" lon="5.24392">
        <ele>477</ele>
        <time>2022-07-28T08:57:46Z</time>
      </trkpt>
      <trkpt lat="44.68592" lon="5.2438">
        <ele>476</ele>
        <time>2022-07-28T08:57:53Z</time>
      </trkpt>
      <trkpt lat="44.686" lon="5.24334">
        <ele>473</ele>
        <time>2022-07-28T08:58:05Z</time>
      </trkpt>
      <trkpt lat="44.68597" lon="5.24321">
        <ele>471</ele>
        <time>2022-07-28T08:58:08Z</time>
      </trkpt>
      <trkpt lat="44.68593" lon="5.24309">
        <ele>469</ele>
        <time>2022-07-28T08:58:11Z</time>
      </trkpt>
      <trkpt lat="44.68596" lon="5.24297">
        <ele>469</ele>
        <time>2022-07-28T08:58:13Z</time>
      </trkpt>
      <trkpt lat="44.68608" lon="5.24294">
        <ele>465</ele>
        <time>2022-07-28T08:58:18Z</time>
      </trkpt>
      <trkpt lat="44.68617" lon="5.24296">
        <ele>463</ele>
        <time>2022-07-28T08:58:21Z</time>
      </trkpt>
      <trkpt lat="44.68624" lon="5.24294">
        <ele>462</ele>
        <time>2022-07-28T08:58:24Z</time>
      </trkpt>
      <trkpt lat="44.68665" lon="5.2419">
        <ele>455</ele>
        <time>2022-07-28T08:58:45Z</time>
      </trkpt>
      <trkpt lat="44.68675" lon="5.2413">
        <ele>450</ele>
        <time>2022-07-28T08:58:54Z</time>
      </trkpt>
      <trkpt lat="44.68677" lon="5.24119">
        <ele>448</ele>
        <time>2022-07-28T08:58:56Z</time>
      </trkpt>
      <trkpt lat="44.6868" lon="5.24082">
        <ele>445</ele>
        <time>2022-07-28T08:59:04Z</time>
      </trkpt>
      <trkpt lat="44.68685" lon="5.24074">
        <ele>443</ele>
        <time>2022-07-28T08:59:06Z</time>
      </trkpt>
      <trkpt lat="44.68692" lon="5.24068">
        <ele>441</ele>
        <time>2022-07-28T08:59:09Z</time>
      </trkpt>
      <trkpt lat="44.68703" lon="5.24064">
        <ele>438</ele>
        <time>2022-07-28T08:59:13Z</time>
      </trkpt>
      <trkpt lat="44.68722" lon="5.24074">
        <ele>436</ele>
        <time>2022-07-28T08:59:18Z</time>
      </trkpt>
      <trkpt lat="44.68736" lon="5.24087">
        <ele>435</ele>
        <time>2022-07-28T08:59:22Z</time>
      </trkpt>
      <trkpt lat="44.68746" lon="5.24105">
        <ele>434</ele>
        <time>2022-07-28T08:59:26Z</time>
      </trkpt>
      <trkpt lat="44.68771" lon="5.24165">
        <ele>429</ele>
        <time>2022-07-28T08:59:36Z</time>
      </trkpt>
      <trkpt lat="44.688" lon="5.24216">
        <ele>426</ele>
        <time>2022-07-28T08:59:46Z</time>
      </trkpt>
      <trkpt lat="44.68806" lon="5.24224">
        <ele>425</ele>
        <time>2022-07-28T08:59:48Z</time>
      </trkpt>
      <trkpt lat="44.68814" lon="5.2423">
        <ele>424</ele>
        <time>2022-07-28T08:59:50Z</time>
      </trkpt>
      <trkpt lat="44.68841" lon="5.24235">
        <ele>423</ele>
        <time>2022-07-28T08:59:58Z</time>
      </trkpt>
      <trkpt lat="44.68864" lon="5.24248">
        <ele>421</ele>
        <time>2022-07-28T09:00:06Z</time>
      </trkpt>
      <trkpt lat="44.68855" lon="5.24227">
        <ele>417</ele>
        <time>2022-07-28T09:00:13Z</time>
      </trkpt>
      <trkpt lat="44.6884" lon="5.24205">
        <ele>414</ele>
        <time>2022-07-28T09:00:19Z</time>
      </trkpt>
      <trkpt lat="44.68828" lon="5.24194">
        <ele>411</ele>
        <time>2022-07-28T09:00:23Z</time>
      </trkpt>
      <trkpt lat="44.6882" lon="5.24174">
        <ele>409</ele>
        <time>2022-07-28T09:00:27Z</time>
      </trkpt>
      <trkpt lat="44.68814" lon="5.24151">
        <ele>406</ele>
        <time>2022-07-28T09:00:32Z</time>
      </trkpt>
      <trkpt lat="44.68801" lon="5.24107">
        <ele>402</ele>
        <time>2022-07-28T09:00:40Z</time>
      </trkpt>
      <trkpt lat="44.688" lon="5.24097">
        <ele>400</ele>
        <time>2022-07-28T09:00:42Z</time>
      </trkpt>
      <trkpt lat="44.68783" lon="5.24034">
        <ele>395</ele>
        <time>2022-07-28T09:00:54Z</time>
      </trkpt>
      <trkpt lat="44.68788" lon="5.23977">
        <ele>391</ele>
        <time>2022-07-28T09:01:05Z</time>
      </trkpt>
      <trkpt lat="44.68786" lon="5.23964">
        <ele>390</ele>
        <time>2022-07-28T09:01:08Z</time>
      </trkpt>
      <trkpt lat="44.6878" lon="5.23956">
        <ele>389</ele>
        <time>2022-07-28T09:01:11Z</time>
      </trkpt>
      <trkpt lat="44.68765" lon="5.23947">
        <ele>387</ele>
        <time>2022-07-28T09:01:17Z</time>
      </trkpt>
      <trkpt lat="44.68775" lon="5.23943">
        <ele>385</ele>
        <time>2022-07-28T09:01:23Z</time>
      </trkpt>
      <trkpt lat="44.68803" lon="5.2394">
        <ele>381</ele>
        <time>2022-07-28T09:01:32Z</time>
      </trkpt>
      <trkpt lat="44.68795" lon="5.23927">
        <ele>377</ele>
        <time>2022-07-28T09:01:39Z</time>
      </trkpt>
      <trkpt lat="44.68787" lon="5.23917">
        <ele>374</ele>
        <time>2022-07-28T09:01:42Z</time>
      </trkpt>
      <trkpt lat="44.68771" lon="5.23904">
        <ele>371</ele>
        <time>2022-07-28T09:01:47Z</time>
      </trkpt>
      <trkpt lat="44.68759" lon="5.23887">
        <ele>369</ele>
        <time>2022-07-28T09:01:51Z</time>
      </trkpt>
      <trkpt lat="44.68756" lon="5.23878">
        <ele>367</ele>
        <time>2022-07-28T09:01:53Z</time>
      </trkpt>
      <trkpt lat="44.68762" lon="5.23851">
        <ele>365</ele>
        <time>2022-07-28T09:01:59Z</time>
      </trkpt>
      <trkpt lat="44.68764" lon="5.23841">
        <ele>362</ele>
        <time>2022-07-28T09:02:01Z</time>
      </trkpt>
      <trkpt lat="44.68764" lon="5.23828">
        <ele>360</ele>
        <time>2022-07-28T09:02:04Z</time>
      </trkpt>
      <trkpt lat="44.68763" lon="5.23811">
        <ele>358</ele>
        <time>2022-07-28T09:02:07Z</time>
      </trkpt>
      <trkpt lat="44.68762" lon="5.23797">
        <ele>355</ele>
        <time>2022-07-28T09:02:10Z</time>
      </trkpt>
      <trkpt lat="44.68758" lon="5.23786">
        <ele>354</ele>
        <time>2022-07-28T09:02:13Z</time>
      </trkpt>
      <trkpt lat="44.68753" lon="5.23778">
        <ele>351</ele>
        <time>2022-07-28T09:02:16Z</time>
      </trkpt>
      <trkpt lat="44.68747" lon="5.23772">
        <ele>350</ele>
        <time>2022-07-28T09:02:20Z</time>
      </trkpt>
      <trkpt lat="44.6874" lon="5.2377">
        <ele>350</ele>
        <time>2022-07-28T09:02:23Z</time>
      </trkpt>
      <trkpt lat="44.68672" lon="5.23774">
        <ele>346</ele>
        <time>2022-07-28T09:02:44Z</time>
      </trkpt>
      <trkpt lat="44.68649" lon="5.23771">
        <ele>342</ele>
        <time>2022-07-28T09:02:50Z</time>
      </trkpt>
      <trkpt lat="44.68633" lon="5.23773">
        <ele>339</ele>
        <time>2022-07-28T09:02:55Z</time>
      </trkpt>
      <trkpt lat="44.68625" lon="5.23777">
        <ele>337</ele>
        <time>2022-07-28T09:02:58Z</time>
      </trkpt>
      <trkpt lat="44.68613" lon="5.23791">
        <ele>335</ele>
        <time>2022-07-28T09:03:03Z</time>
      </trkpt>
      <trkpt lat="44.6861" lon="5.23775">
        <ele>329</ele>
        <time>2022-07-28T09:03:16Z</time>
      </trkpt>
      <trkpt lat="44.68618" lon="5.23765">
        <ele>328</ele>
        <time>2022-07-28T09:03:20Z</time>
      </trkpt>
      <trkpt lat="44.68625" lon="5.2376">
        <ele>327</ele>
        <time>2022-07-28T09:03:23Z</time>
      </trkpt>
      <trkpt lat="44.68647" lon="5.23734">
        <ele>324</ele>
        <time>2022-07-28T09:03:35Z</time>
      </trkpt>
      <trkpt lat="44.68672" lon="5.23719">
        <ele>320</ele>
        <time>2022-07-28T09:03:43Z</time>
      </trkpt>
      <trkpt lat="44.68676" lon="5.2371">
        <ele>318</ele>
        <time>2022-07-28T09:03:49Z</time>
      </trkpt>
      <trkpt lat="44.68668" lon="5.23706">
        <ele>317</ele>
        <time>2022-07-28T09:03:52Z</time>
      </trkpt>
      <trkpt lat="44.6867" lon="5.23696">
        <ele>315</ele>
        <time>2022-07-28T09:03:58Z</time>
      </trkpt>
      <trkpt lat="44.68678" lon="5.23699">
        <ele>313</ele>
        <time>2022-07-28T09:04:02Z</time>
      </trkpt>
      <trkpt lat="44.68685" lon="5.23697">
        <ele>313</ele>
        <time>2022-07-28T09:04:05Z</time>
      </trkpt>
      <trkpt lat="44.68722" lon="5.23654">
        <ele>312</ele>
        <time>2022-07-28T09:04:18Z</time>
      </trkpt>
      <trkpt lat="44.6873" lon="5.2365">
        <ele>311</ele>
        <time>2022-07-28T09:04:21Z</time>
      </trkpt>
    </trkseg>
  </trk>
</gpx>